MDG50 FMMI-LFPG
Flight info
| Callsign | MDG50 |
|---|---|
| Flight time | 10h 39m |
| Altitude | 32000 |
| Route | KEKIN DCT UVGAD UA401 MG UR775 BERIL/N0514F310 UR775 SOKAR/N0512F320 UR775 LOTER/N0509F330 UR775 UNPAR/N0511F320 UR775 APMIR/N0506F340 UR775 MOGDU UN304 DWA DCT XADOX DCT KONET/N0501F350 UG650 RASKA/N0497F360 T513 EGMEG/N0498F350 G660 JDW/N0494F360 M686 OTEMO T55 GINDI/N0485F380 T55 KUNKI P751 METRU DCT TIGRA/N0486F400 DCT ARSOB DCT NUTRO DCT CERVI DCT MOLUS DCT UNKIR/N0484F380 DCT GIVRI DCT TINIL |
| Aircraft | B742/H-SDFHIRWXY/L |
Departure
| Time | 2026-05-08 09:20 |
|---|---|
| Airport | Ivato International Airport (FMMI) |
Arrival
| Time | 2026-05-08 19:59 |
|---|---|
| Airport | Charles de Gaulle International Airport (LFPG) |
| Time | Latitude | Longitude | Altitude | Speed | Heading |
|---|---|---|---|---|---|
| 2026-05-08 07:46 | -18.80002 | 47.47988 | 4173 ft | 0 kts | 189° |
| 2026-05-08 08:57 | -18.80001 | 47.47988 | 4175 ft | 0 kts | 189° |
| 2026-05-08 08:57 | -18.79992 | 47.47990 | 4175 ft | 2 kts | 189° |
| 2026-05-08 08:57 | -18.79977 | 47.47993 | 4174 ft | 2 kts | 189° |
| 2026-05-08 08:57 | -18.79965 | 47.47995 | 4174 ft | 0 kts | 189° |
| 2026-05-08 08:58 | -18.79953 | 47.47996 | 4174 ft | 2 kts | 181° |
| 2026-05-08 08:58 | -18.79938 | 47.47995 | 4173 ft | 2 kts | 167° |
| 2026-05-08 08:58 | -18.79923 | 47.47990 | 4173 ft | 2 kts | 154° |
| 2026-05-08 08:58 | -18.79911 | 47.47981 | 4173 ft | 2 kts | 142° |
| 2026-05-08 08:59 | -18.79900 | 47.47971 | 4172 ft | 2 kts | 129° |
| 2026-05-08 08:59 | -18.79891 | 47.47958 | 4172 ft | 2 kts | 117° |
| 2026-05-08 08:59 | -18.79886 | 47.47943 | 4172 ft | 2 kts | 104° |
| 2026-05-08 08:59 | -18.79884 | 47.47934 | 4171 ft | 1 kts | 97° |
| 2026-05-08 09:00 | -18.79884 | 47.47931 | 4171 ft | 0 kts | 98° |
| 2026-05-08 09:10 | -18.79884 | 47.47932 | 4171 ft | 0 kts | 98° |
| 2026-05-08 09:10 | -18.79885 | 47.47939 | 4171 ft | 1 kts | 98° |
| 2026-05-08 09:10 | -18.79890 | 47.47978 | 4172 ft | 8 kts | 99° |
| 2026-05-08 09:11 | -18.79902 | 47.48058 | 4174 ft | 10 kts | 95° |
| 2026-05-08 09:11 | -18.79882 | 47.48098 | 4174 ft | 6 kts | 32° |
| 2026-05-08 09:11 | -18.79863 | 47.48105 | 4173 ft | 0 kts | 12° |
| 2026-05-08 09:12 | -18.79862 | 47.48105 | 4173 ft | 0 kts | 12° |
| 2026-05-08 09:12 | -18.79861 | 47.48105 | 4173 ft | 1 kts | 12° |
| 2026-05-08 09:12 | -18.79834 | 47.48111 | 4172 ft | 7 kts | 12° |
| 2026-05-08 09:13 | -18.79756 | 47.48109 | 4168 ft | 14 kts | 335° |
| 2026-05-08 09:13 | -18.79713 | 47.48005 | 4168 ft | 18 kts | 278° |
| 2026-05-08 09:13 | -18.79691 | 47.47852 | 4170 ft | 23 kts | 279° |
| 2026-05-08 09:13 | -18.79664 | 47.47674 | 4173 ft | 23 kts | 279° |
| 2026-05-08 09:14 | -18.79640 | 47.47513 | 4176 ft | 21 kts | 279° |
| 2026-05-08 09:14 | -18.79619 | 47.47376 | 4181 ft | 16 kts | 279° |
| 2026-05-08 09:14 | -18.79603 | 47.47263 | 4186 ft | 15 kts | 278° |
| 2026-05-08 09:14 | -18.79588 | 47.47154 | 4192 ft | 15 kts | 278° |
| 2026-05-08 09:15 | -18.79571 | 47.47039 | 4197 ft | 16 kts | 279° |
| 2026-05-08 09:15 | -18.79551 | 47.46912 | 4203 ft | 19 kts | 279° |
| 2026-05-08 09:15 | -18.79528 | 47.46761 | 4210 ft | 22 kts | 279° |
| 2026-05-08 09:15 | -18.79501 | 47.46591 | 4215 ft | 22 kts | 279° |
| 2026-05-08 09:16 | -18.79451 | 47.46484 | 4218 ft | 10 kts | 304° |
| 2026-05-08 09:16 | -18.79459 | 47.46441 | 4219 ft | 3 kts | 203° |
| 2026-05-08 09:16 | -18.79479 | 47.46444 | 4219 ft | 1 kts | 129° |
| 2026-05-08 09:16 | -18.79481 | 47.46450 | 4219 ft | 0 kts | 98° |
| 2026-05-08 09:18 | -18.79481 | 47.46451 | 4219 ft | 0 kts | 98° |
| 2026-05-08 09:18 | -18.79495 | 47.46545 | 4216 ft | 36 kts | 98° |
| 2026-05-08 09:18 | -18.79563 | 47.46997 | 4199 ft | 88 kts | 99° |
| 2026-05-08 09:19 | -18.79686 | 47.47813 | 4171 ft | 135 kts | 99° |
| 2026-05-08 09:19 | -18.79851 | 47.48938 | 4153 ft | 175 kts | 99° |
| 2026-05-08 09:19 | -18.80012 | 47.50280 | 4375 ft | 183 kts | 98° |
| 2026-05-08 09:19 | -18.80155 | 47.51631 | 4626 ft | 190 kts | 98° |
| 2026-05-08 09:20 | -18.80288 | 47.53026 | 4996 ft | 191 kts | 96° |
| 2026-05-08 09:20 | -18.80246 | 47.54376 | 5503 ft | 182 kts | 75° |
| 2026-05-08 09:20 | -18.79684 | 47.55543 | 5855 ft | 182 kts | 48° |
| 2026-05-08 09:20 | -18.78639 | 47.56345 | 6008 ft | 196 kts | 20° |
| 2026-05-08 09:21 | -18.77233 | 47.56529 | 6205 ft | 208 kts | 353° |
| 2026-05-08 09:21 | -18.75861 | 47.55953 | 6401 ft | 221 kts | 320° |
| 2026-05-08 09:22 | -18.73343 | 47.45708 | 8047 ft | 252 kts | 287° |
| 2026-05-08 09:23 | -18.72886 | 47.43893 | 8145 ft | 260 kts | 289° |
| 2026-05-08 09:23 | -18.72276 | 47.42092 | 8304 ft | 261 kts | 307° |
| 2026-05-08 09:23 | -18.70976 | 47.40808 | 8454 ft | 256 kts | 340° |
| 2026-05-08 09:23 | -18.69274 | 47.40266 | 8565 ft | 258 kts | 356° |
| 2026-05-08 09:24 | -18.67441 | 47.40078 | 8669 ft | 268 kts | 358° |
| 2026-05-08 09:24 | -18.65574 | 47.39684 | 8760 ft | 283 kts | 336° |
| 2026-05-08 09:24 | -18.63954 | 47.38400 | 8972 ft | 295 kts | 319° |
| 2026-05-08 09:24 | -18.62401 | 47.37039 | 9466 ft | 290 kts | 326° |
| 2026-05-08 09:25 | -18.60806 | 47.35741 | 9895 ft | 290 kts | 326° |
| 2026-05-08 09:25 | -18.59196 | 47.34422 | 10211 ft | 295 kts | 325° |
| 2026-05-08 09:25 | -18.57577 | 47.33091 | 10587 ft | 296 kts | 325° |
| 2026-05-08 09:25 | -18.55944 | 47.31748 | 10921 ft | 300 kts | 325° |
| 2026-05-08 09:26 | -18.54291 | 47.30387 | 11190 ft | 306 kts | 325° |
| 2026-05-08 09:26 | -18.52567 | 47.28972 | 11336 ft | 317 kts | 325° |
| 2026-05-08 09:26 | -18.50797 | 47.27516 | 11475 ft | 329 kts | 325° |
| 2026-05-08 09:26 | -18.48957 | 47.26004 | 11625 ft | 341 kts | 324° |
| 2026-05-08 09:27 | -18.47049 | 47.24437 | 11774 ft | 353 kts | 324° |
| 2026-05-08 09:27 | -18.45076 | 47.22816 | 11919 ft | 365 kts | 324° |
| 2026-05-08 09:27 | -18.43037 | 47.21142 | 12058 ft | 376 kts | 324° |
| 2026-05-08 09:27 | -18.40943 | 47.19423 | 12199 ft | 388 kts | 324° |
| 2026-05-08 09:28 | -18.38759 | 47.17632 | 12338 ft | 400 kts | 324° |
| 2026-05-08 09:28 | -18.36564 | 47.15831 | 12699 ft | 403 kts | 324° |
| 2026-05-08 09:28 | -18.34342 | 47.14009 | 13135 ft | 405 kts | 324° |
| 2026-05-08 09:28 | -18.32095 | 47.12167 | 13518 ft | 409 kts | 324° |
| 2026-05-08 09:29 | -18.29836 | 47.10317 | 13965 ft | 410 kts | 324° |
| 2026-05-08 09:29 | -18.27595 | 47.08483 | 14440 ft | 411 kts | 323° |
| 2026-05-08 09:29 | -18.25341 | 47.06638 | 14884 ft | 412 kts | 323° |
| 2026-05-08 09:29 | -18.23088 | 47.04795 | 15358 ft | 413 kts | 323° |
| 2026-05-08 09:30 | -18.20812 | 47.02947 | 15808 ft | 413 kts | 325° |
| 2026-05-08 09:30 | -18.18279 | 47.01452 | 16195 ft | 414 kts | 339° |
| 2026-05-08 09:30 | -18.15490 | 47.00670 | 16621 ft | 414 kts | 353° |
| 2026-05-08 09:30 | -18.12618 | 47.00399 | 17033 ft | 415 kts | 356° |
| 2026-05-08 09:31 | -18.09732 | 47.00102 | 17434 ft | 417 kts | 353° |
| 2026-05-08 09:31 | -18.06873 | 46.99628 | 17821 ft | 420 kts | 349° |
| 2026-05-08 09:31 | -18.04012 | 46.99001 | 18207 ft | 421 kts | 347° |
| 2026-05-08 09:31 | -18.01112 | 46.98273 | 18529 ft | 425 kts | 346° |
| 2026-05-08 09:32 | -17.98245 | 46.97509 | 18905 ft | 427 kts | 346° |
| 2026-05-08 09:32 | -17.95352 | 46.96720 | 19245 ft | 430 kts | 346° |
| 2026-05-08 09:32 | -17.92454 | 46.95925 | 19599 ft | 432 kts | 346° |
| 2026-05-08 09:32 | -17.89517 | 46.95121 | 19916 ft | 435 kts | 346° |
| 2026-05-08 09:33 | -17.86586 | 46.94320 | 20224 ft | 438 kts | 346° |
| 2026-05-08 09:33 | -17.83633 | 46.93514 | 20519 ft | 441 kts | 346° |
| 2026-05-08 09:33 | -17.80629 | 46.92695 | 20834 ft | 443 kts | 346° |
| 2026-05-08 09:33 | -17.77654 | 46.91885 | 21121 ft | 445 kts | 346° |
| 2026-05-08 09:34 | -17.74648 | 46.91067 | 21397 ft | 448 kts | 346° |
| 2026-05-08 09:34 | -17.71593 | 46.90235 | 21663 ft | 451 kts | 346° |
| 2026-05-08 09:34 | -17.68570 | 46.89412 | 21956 ft | 452 kts | 346° |
| 2026-05-08 09:34 | -17.65487 | 46.88575 | 22216 ft | 455 kts | 346° |
| 2026-05-08 09:35 | -17.62415 | 46.87739 | 22523 ft | 456 kts | 346° |
| 2026-05-08 09:35 | -17.59332 | 46.86902 | 22839 ft | 457 kts | 346° |
| 2026-05-08 09:35 | -17.56247 | 46.86064 | 23111 ft | 459 kts | 346° |
| 2026-05-08 09:35 | -17.53140 | 46.85220 | 23347 ft | 462 kts | 346° |
| 2026-05-08 09:36 | -17.50017 | 46.84372 | 23588 ft | 465 kts | 346° |
| 2026-05-08 09:36 | -17.46872 | 46.83519 | 23793 ft | 468 kts | 345° |
| 2026-05-08 09:36 | -17.43722 | 46.82665 | 24095 ft | 468 kts | 345° |
| 2026-05-08 09:36 | -17.40562 | 46.81809 | 24341 ft | 470 kts | 345° |
| 2026-05-08 09:37 | -17.37386 | 46.80947 | 24541 ft | 472 kts | 345° |
| 2026-05-08 09:37 | -17.34186 | 46.80080 | 24752 ft | 474 kts | 345° |
| 2026-05-08 09:37 | -17.30981 | 46.79211 | 24971 ft | 476 kts | 345° |
| 2026-05-08 09:37 | -17.27757 | 46.78337 | 25214 ft | 477 kts | 345° |
| 2026-05-08 09:38 | -17.24500 | 46.77456 | 25446 ft | 478 kts | 345° |
| 2026-05-08 09:38 | -17.21291 | 46.76587 | 25644 ft | 480 kts | 345° |
| 2026-05-08 09:38 | -17.18058 | 46.75713 | 25847 ft | 481 kts | 344° |
| 2026-05-08 09:38 | -17.14770 | 46.74824 | 26046 ft | 483 kts | 344° |
| 2026-05-08 09:39 | -17.11527 | 46.73947 | 26238 ft | 484 kts | 344° |
| 2026-05-08 09:39 | -17.08261 | 46.73064 | 26413 ft | 486 kts | 344° |
| 2026-05-08 09:39 | -17.04937 | 46.72167 | 26612 ft | 487 kts | 344° |
| 2026-05-08 09:39 | -17.01649 | 46.71279 | 26793 ft | 489 kts | 344° |
| 2026-05-08 09:40 | -16.98366 | 46.70393 | 26985 ft | 490 kts | 344° |
| 2026-05-08 09:40 | -16.95041 | 46.69496 | 27149 ft | 492 kts | 344° |
| 2026-05-08 09:40 | -16.91704 | 46.68597 | 27342 ft | 492 kts | 343° |
| 2026-05-08 09:40 | -16.88387 | 46.67703 | 27507 ft | 494 kts | 343° |
| 2026-05-08 09:41 | -16.85039 | 46.66800 | 27650 ft | 495 kts | 343° |
| 2026-05-08 09:41 | -16.81680 | 46.65895 | 27805 ft | 497 kts | 343° |
| 2026-05-08 09:41 | -16.78308 | 46.64987 | 27944 ft | 498 kts | 343° |
| 2026-05-08 09:41 | -16.74956 | 46.64084 | 28101 ft | 499 kts | 343° |
| 2026-05-08 09:42 | -16.71588 | 46.63178 | 28275 ft | 500 kts | 343° |
| 2026-05-08 09:42 | -16.68212 | 46.62271 | 28394 ft | 501 kts | 343° |
| 2026-05-08 09:42 | -16.64805 | 46.61355 | 28520 ft | 502 kts | 343° |
| 2026-05-08 09:42 | -16.61380 | 46.60434 | 28667 ft | 503 kts | 343° |
| 2026-05-08 09:43 | -16.57997 | 46.59525 | 28773 ft | 505 kts | 343° |
| 2026-05-08 09:43 | -16.51114 | 46.57677 | 28988 ft | 508 kts | 343° |
| 2026-05-08 09:44 | -16.44290 | 46.55816 | 29149 ft | 511 kts | 342° |
| 2026-05-08 09:44 | -16.40842 | 46.54817 | 29264 ft | 512 kts | 342° |
| 2026-05-08 09:44 | -16.37415 | 46.53806 | 29332 ft | 514 kts | 342° |
| 2026-05-08 09:44 | -16.33944 | 46.52779 | 29445 ft | 515 kts | 342° |
| 2026-05-08 09:45 | -16.30502 | 46.51763 | 29536 ft | 516 kts | 342° |
| 2026-05-08 09:45 | -16.27027 | 46.50741 | 29665 ft | 516 kts | 342° |
| 2026-05-08 09:45 | -16.23563 | 46.49725 | 29712 ft | 519 kts | 342° |
| 2026-05-08 09:45 | -16.20073 | 46.48703 | 29815 ft | 519 kts | 342° |
| 2026-05-08 09:46 | -16.16619 | 46.47693 | 29906 ft | 520 kts | 342° |
| 2026-05-08 09:46 | -16.09614 | 46.45646 | 30075 ft | 523 kts | 342° |
| 2026-05-08 09:47 | -16.02557 | 46.43643 | 30234 ft | 525 kts | 345° |
| 2026-05-08 09:47 | -15.95377 | 46.41957 | 30377 ft | 528 kts | 344° |
| 2026-05-08 09:47 | -15.91821 | 46.41060 | 30487 ft | 528 kts | 343° |
| 2026-05-08 09:48 | -15.88211 | 46.40085 | 30563 ft | 529 kts | 342° |
| 2026-05-08 09:48 | -15.81101 | 46.38056 | 30729 ft | 530 kts | 342° |
| 2026-05-08 09:49 | -15.73968 | 46.35978 | 30864 ft | 532 kts | 342° |
| 2026-05-08 09:49 | -15.66817 | 46.33966 | 30968 ft | 534 kts | 347° |
| 2026-05-08 09:50 | -15.59438 | 46.33043 | 31060 ft | 538 kts | 355° |
| 2026-05-08 09:50 | -15.51905 | 46.32658 | 31166 ft | 539 kts | 356° |
| 2026-05-08 09:51 | -15.44384 | 46.32275 | 31289 ft | 540 kts | 355° |
| 2026-05-08 09:51 | -15.36841 | 46.31825 | 31349 ft | 541 kts | 355° |
| 2026-05-08 09:52 | -15.29288 | 46.31350 | 31409 ft | 541 kts | 355° |
| 2026-05-08 09:52 | -15.21776 | 46.30877 | 31480 ft | 541 kts | 355° |
| 2026-05-08 09:53 | -15.14216 | 46.30404 | 31509 ft | 542 kts | 355° |
| 2026-05-08 09:53 | -15.10436 | 46.30168 | 31651 ft | 539 kts | 355° |
| 2026-05-08 09:53 | -15.06669 | 46.29933 | 31868 ft | 536 kts | 355° |
| 2026-05-08 09:54 | -14.99188 | 46.29466 | 31960 ft | 538 kts | 355° |
| 2026-05-08 09:54 | -14.91660 | 46.28997 | 31956 ft | 538 kts | 355° |
| 2026-05-08 09:55 | -14.84173 | 46.28530 | 31957 ft | 538 kts | 355° |
| 2026-05-08 09:55 | -14.76673 | 46.28063 | 31958 ft | 537 kts | 355° |
| 2026-05-08 09:56 | -14.69189 | 46.27597 | 31961 ft | 537 kts | 355° |
| 2026-05-08 09:56 | -14.61735 | 46.27134 | 31963 ft | 537 kts | 355° |
| 2026-05-08 09:57 | -14.50517 | 46.26437 | 31962 ft | 537 kts | 355° |
| 2026-05-08 09:57 | -14.43033 | 46.25972 | 31963 ft | 536 kts | 355° |
| 2026-05-08 09:58 | -14.35596 | 46.25510 | 31962 ft | 536 kts | 355° |
| 2026-05-08 09:58 | -14.28132 | 46.25048 | 31960 ft | 536 kts | 355° |
| 2026-05-08 09:59 | -14.20689 | 46.24587 | 31958 ft | 535 kts | 355° |
| 2026-05-08 09:59 | -14.13223 | 46.24124 | 31956 ft | 535 kts | 356° |
| 2026-05-08 10:00 | -14.05759 | 46.23662 | 31957 ft | 535 kts | 356° |
| 2026-05-08 10:00 | -13.98338 | 46.23204 | 31956 ft | 534 kts | 355° |
| 2026-05-08 10:01 | -13.90886 | 46.22743 | 31955 ft | 534 kts | 355° |
| 2026-05-08 10:01 | -13.83424 | 46.22282 | 31957 ft | 534 kts | 356° |
| 2026-05-08 10:02 | -13.75973 | 46.21822 | 31955 ft | 534 kts | 356° |
| 2026-05-08 10:02 | -13.68529 | 46.21363 | 31957 ft | 533 kts | 356° |
| 2026-05-08 10:03 | -13.61097 | 46.20905 | 31954 ft | 533 kts | 356° |
| 2026-05-08 10:03 | -13.53646 | 46.20446 | 31956 ft | 532 kts | 356° |
| 2026-05-08 10:04 | -13.46191 | 46.19987 | 31957 ft | 532 kts | 356° |
| 2026-05-08 10:04 | -13.38744 | 46.19529 | 31956 ft | 532 kts | 356° |
| 2026-05-08 10:05 | -13.31301 | 46.19071 | 31954 ft | 532 kts | 356° |
| 2026-05-08 10:05 | -13.23807 | 46.18610 | 31955 ft | 532 kts | 356° |
| 2026-05-08 10:06 | -13.16385 | 46.18154 | 31955 ft | 532 kts | 356° |
| 2026-05-08 10:06 | -13.08929 | 46.17697 | 31957 ft | 532 kts | 356° |
| 2026-05-08 10:07 | -13.01551 | 46.17244 | 31956 ft | 532 kts | 356° |
| 2026-05-08 10:07 | -12.94146 | 46.16790 | 31959 ft | 531 kts | 356° |
| 2026-05-08 10:08 | -12.86685 | 46.16333 | 31967 ft | 531 kts | 356° |
| 2026-05-08 10:08 | -12.79339 | 46.15883 | 31972 ft | 531 kts | 356° |
| 2026-05-08 10:09 | -12.71879 | 46.15427 | 31972 ft | 531 kts | 356° |
| 2026-05-08 10:09 | -12.64464 | 46.14973 | 31971 ft | 531 kts | 356° |
| 2026-05-08 10:10 | -12.57018 | 46.14518 | 31974 ft | 531 kts | 356° |
| 2026-05-08 10:10 | -12.49614 | 46.14066 | 31975 ft | 531 kts | 356° |
| 2026-05-08 10:11 | -12.42184 | 46.13612 | 31973 ft | 531 kts | 356° |
| 2026-05-08 10:11 | -12.34780 | 46.13160 | 31973 ft | 531 kts | 356° |
| 2026-05-08 10:12 | -12.27386 | 46.12709 | 31975 ft | 531 kts | 356° |
| 2026-05-08 10:12 | -12.19973 | 46.12257 | 31974 ft | 531 kts | 356° |
| 2026-05-08 10:13 | -12.12563 | 46.11806 | 31977 ft | 531 kts | 356° |
| 2026-05-08 10:13 | -12.05165 | 46.11356 | 31976 ft | 531 kts | 356° |
| 2026-05-08 10:14 | -11.97736 | 46.10903 | 31976 ft | 531 kts | 356° |
| 2026-05-08 10:14 | -11.90342 | 46.10454 | 31976 ft | 531 kts | 356° |
| 2026-05-08 10:15 | -11.82940 | 46.10004 | 31978 ft | 530 kts | 356° |
| 2026-05-08 10:15 | -11.75555 | 46.09555 | 31978 ft | 530 kts | 356° |
| 2026-05-08 10:16 | -11.68163 | 46.09106 | 31970 ft | 530 kts | 356° |
| 2026-05-08 10:16 | -11.60783 | 46.08658 | 31971 ft | 531 kts | 356° |
| 2026-05-08 10:17 | -11.53368 | 46.08208 | 31967 ft | 531 kts | 357° |
| 2026-05-08 10:17 | -11.45936 | 46.07758 | 31964 ft | 531 kts | 357° |
| 2026-05-08 10:18 | -11.38515 | 46.07309 | 31959 ft | 531 kts | 357° |
| 2026-05-08 10:18 | -11.31111 | 46.06860 | 31956 ft | 531 kts | 357° |
| 2026-05-08 10:19 | -11.23719 | 46.06412 | 31956 ft | 531 kts | 357° |
| 2026-05-08 10:20 | -11.12575 | 46.05738 | 31957 ft | 531 kts | 357° |
| 2026-05-08 10:20 | -11.05124 | 46.05288 | 31955 ft | 532 kts | 357° |
| 2026-05-08 10:21 | -10.97705 | 46.04840 | 31956 ft | 532 kts | 357° |
| 2026-05-08 10:21 | -10.90277 | 46.04391 | 31962 ft | 531 kts | 357° |
| 2026-05-08 10:22 | -10.82915 | 46.03567 | 31960 ft | 530 kts | 345° |
| 2026-05-08 10:22 | -10.75998 | 46.00814 | 31945 ft | 529 kts | 340° |
| 2026-05-08 10:22 | -10.72458 | 45.99817 | 31949 ft | 527 kts | 351° |
| 2026-05-08 10:23 | -10.68760 | 45.99536 | 31943 ft | 525 kts | 3° |
| 2026-05-08 10:23 | -10.65127 | 45.99989 | 31947 ft | 523 kts | 14° |
| 2026-05-08 10:23 | -10.61594 | 46.00968 | 31953 ft | 522 kts | 17° |
| 2026-05-08 10:24 | -10.54430 | 46.02296 | 31952 ft | 525 kts | 5° |
| 2026-05-08 10:24 | -10.47093 | 46.02313 | 31951 ft | 527 kts | 358° |
| 2026-05-08 10:25 | -10.39687 | 46.01795 | 31948 ft | 528 kts | 356° |
| 2026-05-08 10:25 | -10.32354 | 46.01225 | 31952 ft | 529 kts | 356° |
| 2026-05-08 10:26 | -10.24985 | 46.00689 | 31948 ft | 529 kts | 357° |
| 2026-05-08 10:26 | -10.17624 | 46.00176 | 31951 ft | 529 kts | 357° |
| 2026-05-08 10:27 | -10.10271 | 45.99667 | 31950 ft | 529 kts | 357° |
| 2026-05-08 10:27 | -10.02864 | 45.99154 | 31951 ft | 529 kts | 357° |
| 2026-05-08 10:28 | -9.95505 | 45.98615 | 31949 ft | 529 kts | 353° |
| 2026-05-08 10:28 | -9.91858 | 45.97801 | 31953 ft | 530 kts | 342° |
| 2026-05-08 10:28 | -9.88444 | 45.96366 | 31960 ft | 530 kts | 335° |
| 2026-05-08 10:29 | -9.81463 | 45.93951 | 31947 ft | 527 kts | 353° |
| 2026-05-08 10:29 | -9.77801 | 45.93757 | 31947 ft | 525 kts | 4° |
| 2026-05-08 10:29 | -9.74174 | 45.94287 | 31944 ft | 522 kts | 16° |
| 2026-05-08 10:30 | -9.67200 | 45.96373 | 31936 ft | 523 kts | 14° |
| 2026-05-08 10:30 | -9.59863 | 45.97185 | 31927 ft | 527 kts | 2° |
| 2026-05-08 10:31 | -9.52502 | 45.96935 | 31930 ft | 529 kts | 358° |
| 2026-05-08 10:31 | -9.45136 | 45.96418 | 31934 ft | 530 kts | 357° |
| 2026-05-08 10:32 | -9.37709 | 45.95913 | 31935 ft | 530 kts | 358° |
| 2026-05-08 10:32 | -9.30305 | 45.95447 | 31936 ft | 530 kts | 358° |
| 2026-05-08 10:33 | -9.22857 | 45.94990 | 31934 ft | 531 kts | 358° |
| 2026-05-08 10:33 | -9.15484 | 45.94539 | 31936 ft | 532 kts | 358° |
| 2026-05-08 10:34 | -9.08017 | 45.94080 | 31940 ft | 532 kts | 358° |
| 2026-05-08 10:34 | -9.00559 | 45.93621 | 31936 ft | 533 kts | 358° |
| 2026-05-08 10:35 | -8.93073 | 45.93162 | 31935 ft | 533 kts | 358° |
| 2026-05-08 10:35 | -8.85646 | 45.92706 | 31937 ft | 533 kts | 358° |
| 2026-05-08 10:36 | -8.78191 | 45.92249 | 31931 ft | 532 kts | 358° |
| 2026-05-08 10:36 | -8.70820 | 45.91796 | 31934 ft | 532 kts | 358° |
| 2026-05-08 10:37 | -8.63394 | 45.91341 | 31935 ft | 532 kts | 358° |
| 2026-05-08 10:37 | -8.55961 | 45.90885 | 31933 ft | 532 kts | 358° |
| 2026-05-08 10:38 | -8.48507 | 45.90429 | 31934 ft | 532 kts | 358° |
| 2026-05-08 10:38 | -8.41099 | 45.89975 | 31933 ft | 532 kts | 358° |
| 2026-05-08 10:39 | -8.33656 | 45.89519 | 31929 ft | 532 kts | 358° |
| 2026-05-08 10:39 | -8.26251 | 45.89066 | 31920 ft | 531 kts | 358° |
| 2026-05-08 10:40 | -8.18858 | 45.88614 | 31923 ft | 531 kts | 358° |
| 2026-05-08 10:40 | -8.11478 | 45.88162 | 31919 ft | 531 kts | 358° |
| 2026-05-08 10:41 | -8.04086 | 45.87711 | 31918 ft | 531 kts | 358° |
| 2026-05-08 10:41 | -7.96666 | 45.87257 | 31915 ft | 531 kts | 358° |
| 2026-05-08 10:42 | -7.89213 | 45.86802 | 31914 ft | 531 kts | 358° |
| 2026-05-08 10:42 | -7.81799 | 45.86350 | 31917 ft | 531 kts | 358° |
| 2026-05-08 10:43 | -7.74390 | 45.85897 | 31916 ft | 531 kts | 358° |
| 2026-05-08 10:43 | -7.67021 | 45.85447 | 31914 ft | 531 kts | 358° |
| 2026-05-08 10:44 | -7.59556 | 45.84992 | 31914 ft | 531 kts | 357° |
| 2026-05-08 10:44 | -7.52136 | 45.84540 | 31915 ft | 531 kts | 357° |
| 2026-05-08 10:45 | -7.44716 | 45.84087 | 31914 ft | 531 kts | 357° |
| 2026-05-08 10:45 | -7.37327 | 45.83637 | 31915 ft | 531 kts | 357° |
| 2026-05-08 10:46 | -7.29925 | 45.83186 | 31913 ft | 531 kts | 357° |
| 2026-05-08 10:46 | -7.22446 | 45.82731 | 31916 ft | 531 kts | 357° |
| 2026-05-08 10:47 | -7.15047 | 45.82280 | 31915 ft | 531 kts | 357° |
| 2026-05-08 10:47 | -7.07704 | 45.81833 | 31916 ft | 531 kts | 357° |
| 2026-05-08 10:48 | -7.00300 | 45.81383 | 31911 ft | 531 kts | 357° |
| 2026-05-08 10:48 | -6.92847 | 45.80930 | 31914 ft | 531 kts | 357° |
| 2026-05-08 10:49 | -6.85423 | 45.80478 | 31915 ft | 531 kts | 357° |
| 2026-05-08 10:49 | -6.78016 | 45.80028 | 31915 ft | 530 kts | 356° |
| 2026-05-08 10:50 | -6.70636 | 45.79579 | 31914 ft | 530 kts | 356° |
| 2026-05-08 10:50 | -6.63231 | 45.79129 | 31914 ft | 530 kts | 356° |
| 2026-05-08 10:51 | -6.55855 | 45.78682 | 31915 ft | 530 kts | 356° |
| 2026-05-08 10:51 | -6.48451 | 45.78233 | 31915 ft | 530 kts | 356° |
| 2026-05-08 10:52 | -6.41019 | 45.77781 | 31915 ft | 530 kts | 356° |
| 2026-05-08 10:52 | -6.33576 | 45.77330 | 31913 ft | 529 kts | 356° |
| 2026-05-08 10:53 | -6.26173 | 45.76880 | 31903 ft | 529 kts | 356° |
| 2026-05-08 10:53 | -6.18826 | 45.76434 | 31897 ft | 528 kts | 356° |
| 2026-05-08 10:54 | -6.11356 | 45.75982 | 31897 ft | 528 kts | 356° |
| 2026-05-08 10:54 | -6.03920 | 45.75531 | 31901 ft | 528 kts | 356° |
| 2026-05-08 10:55 | -5.96492 | 45.75081 | 31891 ft | 528 kts | 356° |
| 2026-05-08 10:55 | -5.89047 | 45.74630 | 31894 ft | 528 kts | 356° |
| 2026-05-08 10:56 | -5.81584 | 45.74178 | 31893 ft | 528 kts | 356° |
| 2026-05-08 10:56 | -5.74154 | 45.73728 | 31896 ft | 528 kts | 356° |
| 2026-05-08 10:57 | -5.66690 | 45.73277 | 31894 ft | 527 kts | 356° |
| 2026-05-08 10:57 | -5.55591 | 45.72605 | 31896 ft | 527 kts | 356° |
| 2026-05-08 10:58 | -5.48140 | 45.72154 | 31897 ft | 527 kts | 356° |
| 2026-05-08 10:58 | -5.40728 | 45.71706 | 31897 ft | 527 kts | 356° |
| 2026-05-08 10:59 | -5.33333 | 45.71258 | 31896 ft | 527 kts | 356° |
| 2026-05-08 10:59 | -5.25892 | 45.70808 | 31899 ft | 527 kts | 356° |
| 2026-05-08 11:00 | -5.18468 | 45.70360 | 31902 ft | 527 kts | 356° |
| 2026-05-08 11:00 | -5.11046 | 45.69912 | 31909 ft | 526 kts | 356° |
| 2026-05-08 11:01 | -5.03647 | 45.69465 | 31914 ft | 526 kts | 356° |
| 2026-05-08 11:01 | -4.96265 | 45.69019 | 31912 ft | 526 kts | 356° |
| 2026-05-08 11:02 | -4.85192 | 45.68351 | 31912 ft | 526 kts | 356° |
| 2026-05-08 11:03 | -4.77814 | 45.67905 | 31910 ft | 526 kts | 356° |
| 2026-05-08 11:03 | -4.70432 | 45.67459 | 31909 ft | 527 kts | 356° |
| 2026-05-08 11:04 | -4.63009 | 45.67012 | 31907 ft | 527 kts | 356° |
| 2026-05-08 11:04 | -4.55607 | 45.66565 | 31904 ft | 527 kts | 356° |
| 2026-05-08 11:05 | -4.48263 | 45.66122 | 31902 ft | 527 kts | 356° |
| 2026-05-08 11:05 | -4.40886 | 45.65678 | 31901 ft | 527 kts | 356° |
| 2026-05-08 11:06 | -4.33509 | 45.65232 | 31900 ft | 527 kts | 356° |
| 2026-05-08 11:06 | -4.26164 | 45.64790 | 31898 ft | 527 kts | 356° |
| 2026-05-08 11:07 | -4.18808 | 45.64347 | 31895 ft | 526 kts | 356° |
| 2026-05-08 11:07 | -4.11512 | 45.63913 | 31893 ft | 526 kts | 356° |
| 2026-05-08 11:08 | -4.04115 | 45.63476 | 31893 ft | 526 kts | 356° |
| 2026-05-08 11:08 | -3.96745 | 45.63042 | 31893 ft | 527 kts | 356° |
| 2026-05-08 11:09 | -3.89400 | 45.62609 | 31894 ft | 527 kts | 356° |
| 2026-05-08 11:09 | -3.81990 | 45.62171 | 31894 ft | 527 kts | 356° |
| 2026-05-08 11:10 | -3.74640 | 45.61737 | 31893 ft | 526 kts | 356° |
| 2026-05-08 11:10 | -3.67260 | 45.61302 | 31894 ft | 526 kts | 357° |
| 2026-05-08 11:11 | -3.59877 | 45.60866 | 31893 ft | 526 kts | 357° |
| 2026-05-08 11:11 | -3.52467 | 45.60429 | 31893 ft | 526 kts | 357° |
| 2026-05-08 11:12 | -3.45117 | 45.59996 | 31894 ft | 527 kts | 356° |
| 2026-05-08 11:12 | -3.37742 | 45.59561 | 31891 ft | 527 kts | 357° |
| 2026-05-08 11:13 | -3.30389 | 45.59127 | 31887 ft | 527 kts | 357° |
| 2026-05-08 11:13 | -3.23059 | 45.58695 | 31884 ft | 526 kts | 357° |
| 2026-05-08 11:14 | -3.15671 | 45.58260 | 31877 ft | 526 kts | 357° |
| 2026-05-08 11:14 | -3.08310 | 45.57826 | 31877 ft | 526 kts | 357° |
| 2026-05-08 11:15 | -3.00929 | 45.57391 | 31873 ft | 527 kts | 357° |
| 2026-05-08 11:15 | -2.93630 | 45.56961 | 31872 ft | 527 kts | 357° |
| 2026-05-08 11:16 | -2.86208 | 45.56523 | 31872 ft | 526 kts | 357° |
| 2026-05-08 11:16 | -2.78834 | 45.56089 | 31872 ft | 526 kts | 357° |
| 2026-05-08 11:17 | -2.71482 | 45.55656 | 31872 ft | 526 kts | 357° |
| 2026-05-08 11:17 | -2.64114 | 45.55222 | 31872 ft | 526 kts | 357° |
| 2026-05-08 11:18 | -2.56731 | 45.54788 | 31872 ft | 526 kts | 357° |
| 2026-05-08 11:18 | -2.49337 | 45.54352 | 31872 ft | 526 kts | 357° |
| 2026-05-08 11:19 | -2.41906 | 45.53914 | 31872 ft | 527 kts | 357° |
| 2026-05-08 11:19 | -2.34551 | 45.53482 | 31872 ft | 527 kts | 357° |
| 2026-05-08 11:20 | -2.27163 | 45.53047 | 31872 ft | 526 kts | 357° |
| 2026-05-08 11:20 | -2.19784 | 45.52613 | 31873 ft | 525 kts | 357° |
| 2026-05-08 11:21 | -2.12448 | 45.52181 | 31873 ft | 525 kts | 357° |
| 2026-05-08 11:21 | -2.05058 | 45.51746 | 31879 ft | 525 kts | 357° |
| 2026-05-08 11:22 | -1.97643 | 45.51310 | 31889 ft | 525 kts | 357° |
| 2026-05-08 11:22 | -1.90264 | 45.50876 | 31892 ft | 524 kts | 357° |
| 2026-05-08 11:23 | -1.82873 | 45.50441 | 31892 ft | 524 kts | 357° |
| 2026-05-08 11:23 | -1.75530 | 45.50009 | 31890 ft | 525 kts | 357° |
| 2026-05-08 11:24 | -1.68136 | 45.49574 | 31887 ft | 525 kts | 357° |
| 2026-05-08 11:24 | -1.60726 | 45.49138 | 31880 ft | 525 kts | 357° |
| 2026-05-08 11:25 | -1.53345 | 45.48704 | 31874 ft | 525 kts | 357° |
| 2026-05-08 11:25 | -1.45964 | 45.48270 | 31872 ft | 525 kts | 357° |
| 2026-05-08 11:26 | -1.38644 | 45.47840 | 31872 ft | 525 kts | 357° |
| 2026-05-08 11:26 | -1.31352 | 45.47411 | 31872 ft | 525 kts | 357° |
| 2026-05-08 11:27 | -1.23983 | 45.46978 | 31872 ft | 525 kts | 357° |
| 2026-05-08 11:27 | -1.16654 | 45.46547 | 31872 ft | 526 kts | 357° |
| 2026-05-08 11:28 | -1.09328 | 45.46116 | 31872 ft | 526 kts | 357° |
| 2026-05-08 11:28 | -1.01960 | 45.45683 | 31872 ft | 526 kts | 357° |
| 2026-05-08 11:29 | -0.94627 | 45.45253 | 31873 ft | 526 kts | 357° |
| 2026-05-08 11:29 | -0.87244 | 45.44818 | 31873 ft | 526 kts | 357° |
| 2026-05-08 11:30 | -0.79881 | 45.44385 | 31872 ft | 526 kts | 357° |
| 2026-05-08 11:30 | -0.72487 | 45.43951 | 31873 ft | 526 kts | 357° |
| 2026-05-08 11:31 | -0.65117 | 45.43523 | 31871 ft | 527 kts | 358° |
| 2026-05-08 11:31 | -0.57839 | 45.44190 | 31876 ft | 524 kts | 10° |
| 2026-05-08 11:32 | -0.50577 | 45.44996 | 31873 ft | 525 kts | 2° |
| 2026-05-08 11:32 | -0.43187 | 45.44868 | 31873 ft | 526 kts | 357° |
| 2026-05-08 11:33 | -0.35828 | 45.44357 | 31873 ft | 526 kts | 356° |
| 2026-05-08 11:33 | -0.28443 | 45.43802 | 31873 ft | 527 kts | 356° |
| 2026-05-08 11:34 | -0.21071 | 45.43274 | 31872 ft | 527 kts | 356° |
| 2026-05-08 11:34 | -0.13689 | 45.42760 | 31870 ft | 526 kts | 356° |
| 2026-05-08 11:35 | -0.06395 | 45.42256 | 31865 ft | 518 kts | 356° |
| 2026-05-08 11:35 | 0.00780 | 45.41760 | 31864 ft | 515 kts | 356° |
| 2026-05-08 11:36 | 0.07959 | 45.41263 | 31863 ft | 517 kts | 356° |
| 2026-05-08 11:36 | 0.15205 | 45.40761 | 31858 ft | 519 kts | 356° |
| 2026-05-08 11:37 | 0.22420 | 45.40260 | 31852 ft | 520 kts | 356° |
| 2026-05-08 11:37 | 0.29666 | 45.39758 | 31852 ft | 520 kts | 356° |
| 2026-05-08 11:38 | 0.36896 | 45.39257 | 31851 ft | 520 kts | 356° |
| 2026-05-08 11:38 | 0.44185 | 45.38752 | 31852 ft | 520 kts | 356° |
| 2026-05-08 11:39 | 0.51421 | 45.38250 | 31852 ft | 520 kts | 356° |
| 2026-05-08 11:39 | 0.58663 | 45.37748 | 32073 ft | 515 kts | 356° |
| 2026-05-08 11:39 | 0.62215 | 45.37501 | 32331 ft | 512 kts | 356° |
| 2026-05-08 11:40 | 0.65775 | 45.37254 | 32574 ft | 509 kts | 356° |
| 2026-05-08 11:40 | 0.69288 | 45.37011 | 32820 ft | 507 kts | 356° |
| 2026-05-08 11:40 | 0.72873 | 45.36762 | 33053 ft | 505 kts | 356° |
| 2026-05-08 11:40 | 0.76399 | 45.36518 | 33269 ft | 504 kts | 356° |
| 2026-05-08 11:41 | 0.79915 | 45.36274 | 33469 ft | 502 kts | 356° |
| 2026-05-08 11:41 | 0.83432 | 45.36030 | 33658 ft | 501 kts | 356° |
| 2026-05-08 11:41 | 0.86929 | 45.35787 | 33820 ft | 501 kts | 356° |
| 2026-05-08 11:42 | 0.93943 | 45.35301 | 33871 ft | 505 kts | 356° |
| 2026-05-08 11:42 | 1.01003 | 45.34811 | 33872 ft | 509 kts | 356° |
| 2026-05-08 11:43 | 1.08119 | 45.34318 | 33872 ft | 513 kts | 356° |
| 2026-05-08 11:43 | 1.15273 | 45.33821 | 33871 ft | 516 kts | 356° |
| 2026-05-08 11:44 | 1.22460 | 45.33323 | 33869 ft | 518 kts | 356° |
| 2026-05-08 11:44 | 1.29707 | 45.32820 | 33865 ft | 519 kts | 356° |
| 2026-05-08 11:45 | 1.36957 | 45.32317 | 33862 ft | 520 kts | 356° |
| 2026-05-08 11:45 | 1.44195 | 45.31816 | 33861 ft | 521 kts | 356° |
| 2026-05-08 11:46 | 1.51482 | 45.31310 | 33858 ft | 521 kts | 356° |
| 2026-05-08 11:46 | 1.58711 | 45.30809 | 33857 ft | 521 kts | 356° |
| 2026-05-08 11:47 | 1.65973 | 45.30305 | 33857 ft | 521 kts | 356° |
| 2026-05-08 11:47 | 1.73260 | 45.29799 | 33854 ft | 521 kts | 356° |
| 2026-05-08 11:48 | 1.80512 | 45.29296 | 33855 ft | 521 kts | 356° |
| 2026-05-08 11:48 | 1.87767 | 45.28793 | 33858 ft | 521 kts | 356° |
| 2026-05-08 11:49 | 1.95044 | 45.28288 | 33860 ft | 521 kts | 356° |
| 2026-05-08 11:49 | 2.02223 | 45.27323 | 33865 ft | 520 kts | 343° |
| 2026-05-08 11:50 | 2.08969 | 45.24662 | 33864 ft | 521 kts | 335° |
| 2026-05-08 11:50 | 2.15530 | 45.21572 | 33864 ft | 521 kts | 335° |
| 2026-05-08 11:51 | 2.22158 | 45.18510 | 33864 ft | 522 kts | 336° |
| 2026-05-08 11:51 | 2.28748 | 45.15543 | 33863 ft | 522 kts | 336° |
| 2026-05-08 11:52 | 2.35415 | 45.12565 | 33858 ft | 522 kts | 336° |
| 2026-05-08 11:52 | 2.42082 | 45.09587 | 33860 ft | 522 kts | 336° |
| 2026-05-08 11:53 | 2.48724 | 45.06618 | 33856 ft | 522 kts | 336° |
| 2026-05-08 11:53 | 2.55344 | 45.03657 | 33857 ft | 522 kts | 336° |
| 2026-05-08 11:54 | 2.61934 | 45.00708 | 33853 ft | 511 kts | 336° |
| 2026-05-08 11:54 | 2.68381 | 44.97824 | 33853 ft | 503 kts | 336° |
| 2026-05-08 11:55 | 2.74794 | 44.94955 | 33853 ft | 506 kts | 336° |
| 2026-05-08 11:55 | 2.81318 | 44.92036 | 33852 ft | 509 kts | 336° |
| 2026-05-08 11:56 | 2.87822 | 44.89125 | 33852 ft | 510 kts | 336° |
| 2026-05-08 11:56 | 2.94283 | 44.86233 | 33853 ft | 508 kts | 336° |
| 2026-05-08 11:57 | 3.00733 | 44.83346 | 33856 ft | 506 kts | 336° |
| 2026-05-08 11:57 | 3.07148 | 44.80473 | 33853 ft | 506 kts | 336° |
| 2026-05-08 11:58 | 3.13596 | 44.77586 | 33854 ft | 506 kts | 336° |
| 2026-05-08 11:58 | 3.20051 | 44.74695 | 33859 ft | 507 kts | 336° |
| 2026-05-08 11:59 | 3.29768 | 44.70343 | 33868 ft | 508 kts | 335° |
| 2026-05-08 11:59 | 3.36223 | 44.67451 | 33874 ft | 509 kts | 335° |
| 2026-05-08 12:00 | 3.42729 | 44.64536 | 33881 ft | 508 kts | 335° |
| 2026-05-08 12:00 | 3.49166 | 44.61651 | 33888 ft | 508 kts | 336° |
| 2026-05-08 12:01 | 3.55630 | 44.58754 | 33897 ft | 508 kts | 336° |
| 2026-05-08 12:01 | 3.62120 | 44.55845 | 33906 ft | 508 kts | 336° |
| 2026-05-08 12:02 | 3.68573 | 44.52952 | 33911 ft | 508 kts | 335° |
| 2026-05-08 12:02 | 3.75017 | 44.50063 | 33914 ft | 509 kts | 335° |
| 2026-05-08 12:03 | 3.81509 | 44.47152 | 33919 ft | 509 kts | 335° |
| 2026-05-08 12:03 | 3.88006 | 44.44237 | 33919 ft | 508 kts | 335° |
| 2026-05-08 12:04 | 3.94446 | 44.41348 | 33920 ft | 509 kts | 335° |
| 2026-05-08 12:04 | 4.00974 | 44.38419 | 33918 ft | 509 kts | 335° |
| 2026-05-08 12:05 | 4.07428 | 44.35522 | 33924 ft | 508 kts | 335° |
| 2026-05-08 12:05 | 4.13901 | 44.32617 | 33925 ft | 508 kts | 335° |
| 2026-05-08 12:06 | 4.20370 | 44.29713 | 33927 ft | 509 kts | 335° |
| 2026-05-08 12:06 | 4.26847 | 44.26804 | 33927 ft | 509 kts | 335° |
| 2026-05-08 12:07 | 4.33323 | 44.23896 | 33927 ft | 508 kts | 335° |
| 2026-05-08 12:07 | 4.39800 | 44.20986 | 33927 ft | 509 kts | 335° |
| 2026-05-08 12:08 | 4.46285 | 44.18073 | 33928 ft | 508 kts | 335° |
| 2026-05-08 12:08 | 4.52729 | 44.15178 | 33935 ft | 508 kts | 335° |
| 2026-05-08 12:09 | 4.59183 | 44.12277 | 33938 ft | 509 kts | 335° |
| 2026-05-08 12:09 | 4.65673 | 44.09359 | 33945 ft | 509 kts | 335° |
| 2026-05-08 12:10 | 4.72158 | 44.06443 | 33950 ft | 509 kts | 335° |
| 2026-05-08 12:10 | 4.78634 | 44.03531 | 33950 ft | 509 kts | 335° |
| 2026-05-08 12:11 | 4.85131 | 44.00609 | 33942 ft | 509 kts | 335° |
| 2026-05-08 12:11 | 4.91603 | 43.97697 | 33937 ft | 509 kts | 335° |
| 2026-05-08 12:12 | 4.98046 | 43.94797 | 33928 ft | 508 kts | 335° |
| 2026-05-08 12:12 | 5.04512 | 43.91887 | 33920 ft | 508 kts | 335° |
| 2026-05-08 12:13 | 5.10979 | 43.88976 | 33915 ft | 509 kts | 335° |
| 2026-05-08 12:13 | 5.17458 | 43.86057 | 33911 ft | 508 kts | 335° |
| 2026-05-08 12:14 | 5.23926 | 43.83144 | 33903 ft | 509 kts | 335° |
| 2026-05-08 12:14 | 5.30367 | 43.80243 | 33898 ft | 509 kts | 335° |
| 2026-05-08 12:15 | 5.36867 | 43.77314 | 33900 ft | 510 kts | 335° |
| 2026-05-08 12:15 | 5.43343 | 43.74396 | 33912 ft | 509 kts | 335° |
| 2026-05-08 12:16 | 5.49833 | 43.71469 | 33923 ft | 509 kts | 335° |
| 2026-05-08 12:16 | 5.56283 | 43.68560 | 33916 ft | 510 kts | 336° |
| 2026-05-08 12:17 | 5.62790 | 43.65625 | 33901 ft | 510 kts | 336° |
| 2026-05-08 12:17 | 5.69311 | 43.62684 | 33887 ft | 509 kts | 336° |
| 2026-05-08 12:18 | 5.75760 | 43.59774 | 33869 ft | 509 kts | 336° |
| 2026-05-08 12:18 | 5.82211 | 43.56862 | 33866 ft | 510 kts | 336° |
| 2026-05-08 12:19 | 5.88733 | 43.53918 | 33869 ft | 509 kts | 336° |
| 2026-05-08 12:19 | 5.95226 | 43.50985 | 33865 ft | 510 kts | 336° |
| 2026-05-08 12:20 | 6.01727 | 43.48048 | 33863 ft | 511 kts | 336° |
| 2026-05-08 12:20 | 6.08206 | 43.45121 | 33868 ft | 510 kts | 336° |
| 2026-05-08 12:21 | 6.14700 | 43.42186 | 33867 ft | 508 kts | 336° |
| 2026-05-08 12:21 | 6.21146 | 43.39272 | 33872 ft | 508 kts | 336° |
| 2026-05-08 12:22 | 6.27625 | 43.36343 | 33877 ft | 508 kts | 336° |
| 2026-05-08 12:22 | 6.34119 | 43.33405 | 33882 ft | 508 kts | 336° |
| 2026-05-08 12:23 | 6.40554 | 43.30493 | 33889 ft | 507 kts | 336° |
| 2026-05-08 12:23 | 6.46994 | 43.27578 | 33891 ft | 507 kts | 336° |
| 2026-05-08 12:24 | 6.53433 | 43.24663 | 33900 ft | 506 kts | 336° |
| 2026-05-08 12:24 | 6.59872 | 43.21748 | 33912 ft | 505 kts | 336° |
| 2026-05-08 12:25 | 6.66261 | 43.18854 | 33918 ft | 504 kts | 336° |
| 2026-05-08 12:25 | 6.72694 | 43.15940 | 33931 ft | 504 kts | 336° |
| 2026-05-08 12:26 | 6.79054 | 43.13057 | 33944 ft | 504 kts | 336° |
| 2026-05-08 12:26 | 6.85520 | 43.10125 | 33955 ft | 504 kts | 336° |
| 2026-05-08 12:27 | 6.91901 | 43.07232 | 33962 ft | 503 kts | 336° |
| 2026-05-08 12:27 | 6.98295 | 43.04332 | 33961 ft | 501 kts | 336° |
| 2026-05-08 12:28 | 7.04627 | 43.01458 | 33969 ft | 500 kts | 336° |
| 2026-05-08 12:28 | 7.11023 | 42.98555 | 33981 ft | 502 kts | 336° |
| 2026-05-08 12:29 | 7.17420 | 42.95650 | 33989 ft | 504 kts | 336° |
| 2026-05-08 12:29 | 7.23783 | 42.92760 | 33993 ft | 502 kts | 336° |
| 2026-05-08 12:30 | 7.30177 | 42.89855 | 33997 ft | 502 kts | 336° |
| 2026-05-08 12:30 | 7.36550 | 42.86958 | 33999 ft | 502 kts | 336° |
| 2026-05-08 12:31 | 7.42915 | 42.84065 | 33997 ft | 502 kts | 336° |
| 2026-05-08 12:31 | 7.49287 | 42.81167 | 33997 ft | 503 kts | 336° |
| 2026-05-08 12:32 | 7.55692 | 42.78254 | 33996 ft | 504 kts | 336° |
| 2026-05-08 12:32 | 7.62103 | 42.75337 | 33990 ft | 503 kts | 336° |
| 2026-05-08 12:33 | 7.68479 | 42.72434 | 33984 ft | 504 kts | 336° |
| 2026-05-08 12:33 | 7.74882 | 42.69519 | 33982 ft | 504 kts | 336° |
| 2026-05-08 12:34 | 7.81290 | 42.66600 | 33987 ft | 504 kts | 336° |
| 2026-05-08 12:34 | 7.87706 | 42.63676 | 33996 ft | 504 kts | 336° |
| 2026-05-08 12:35 | 7.94076 | 42.60773 | 34011 ft | 504 kts | 336° |
| 2026-05-08 12:35 | 8.00516 | 42.57836 | 34030 ft | 504 kts | 336° |
| 2026-05-08 12:36 | 8.06922 | 42.54915 | 34051 ft | 504 kts | 336° |
| 2026-05-08 12:36 | 8.13317 | 42.51997 | 34070 ft | 504 kts | 336° |
| 2026-05-08 12:37 | 8.19725 | 42.49072 | 34095 ft | 503 kts | 336° |
| 2026-05-08 12:37 | 8.26116 | 42.46154 | 34110 ft | 504 kts | 336° |
| 2026-05-08 12:38 | 8.32493 | 42.43241 | 34114 ft | 504 kts | 336° |
| 2026-05-08 12:38 | 8.38895 | 42.40316 | 34117 ft | 504 kts | 336° |
| 2026-05-08 12:39 | 8.45299 | 42.37389 | 34122 ft | 503 kts | 336° |
| 2026-05-08 12:39 | 8.51665 | 42.34478 | 34126 ft | 503 kts | 336° |
| 2026-05-08 12:40 | 8.58061 | 42.31552 | 34126 ft | 503 kts | 336° |
| 2026-05-08 12:40 | 8.64469 | 42.28620 | 34129 ft | 504 kts | 335° |
| 2026-05-08 12:41 | 8.70875 | 42.25687 | 34131 ft | 505 kts | 335° |
| 2026-05-08 12:41 | 8.77283 | 42.22752 | 34142 ft | 503 kts | 335° |
| 2026-05-08 12:42 | 8.83667 | 42.19828 | 34154 ft | 503 kts | 335° |
| 2026-05-08 12:42 | 8.90060 | 42.16898 | 34166 ft | 504 kts | 335° |
| 2026-05-08 12:43 | 8.96427 | 42.13980 | 34177 ft | 503 kts | 335° |
| 2026-05-08 12:43 | 9.02830 | 42.11042 | 34186 ft | 503 kts | 335° |
| 2026-05-08 12:44 | 9.09208 | 42.08116 | 34185 ft | 502 kts | 335° |
| 2026-05-08 12:44 | 9.15583 | 42.05191 | 34186 ft | 503 kts | 335° |
| 2026-05-08 12:45 | 9.21959 | 42.02262 | 34193 ft | 503 kts | 335° |
| 2026-05-08 12:45 | 9.28345 | 41.99328 | 34214 ft | 503 kts | 335° |
| 2026-05-08 12:46 | 9.34736 | 41.96391 | 34222 ft | 504 kts | 335° |
| 2026-05-08 12:46 | 9.41140 | 41.93447 | 34233 ft | 504 kts | 335° |
| 2026-05-08 12:47 | 9.47538 | 41.90505 | 34218 ft | 505 kts | 335° |
| 2026-05-08 12:47 | 9.53954 | 41.87554 | 34189 ft | 506 kts | 335° |
| 2026-05-08 12:48 | 9.60395 | 41.84588 | 34134 ft | 506 kts | 335° |
| 2026-05-08 12:48 | 9.66827 | 41.81593 | 34084 ft | 506 kts | 334° |
| 2026-05-08 12:49 | 9.73129 | 41.78437 | 34049 ft | 507 kts | 333° |
| 2026-05-08 12:49 | 9.79474 | 41.75203 | 33996 ft | 506 kts | 333° |
| 2026-05-08 12:50 | 9.85785 | 41.72001 | 33998 ft | 506 kts | 333° |
| 2026-05-08 12:50 | 9.92092 | 41.68812 | 33970 ft | 507 kts | 333° |
| 2026-05-08 12:51 | 10.01542 | 41.64034 | 33946 ft | 507 kts | 333° |
| 2026-05-08 12:52 | 10.07889 | 41.60822 | 33935 ft | 508 kts | 333° |
| 2026-05-08 12:52 | 10.17367 | 41.56023 | 33920 ft | 507 kts | 333° |
| 2026-05-08 12:53 | 10.23670 | 41.52831 | 33912 ft | 507 kts | 333° |
| 2026-05-08 12:53 | 10.30003 | 41.49622 | 33914 ft | 508 kts | 333° |
| 2026-05-08 12:54 | 10.36370 | 41.46394 | 33916 ft | 508 kts | 333° |
| 2026-05-08 12:54 | 10.42696 | 41.43185 | 33918 ft | 508 kts | 333° |
| 2026-05-08 12:55 | 10.49006 | 41.39983 | 33919 ft | 508 kts | 333° |
| 2026-05-08 12:55 | 10.55330 | 41.36772 | 33913 ft | 508 kts | 332° |
| 2026-05-08 12:56 | 10.61665 | 41.33554 | 33895 ft | 509 kts | 332° |
| 2026-05-08 12:56 | 10.68019 | 41.30326 | 33880 ft | 508 kts | 332° |
| 2026-05-08 12:57 | 10.74345 | 41.27109 | 33864 ft | 508 kts | 332° |
| 2026-05-08 12:57 | 10.80679 | 41.23888 | 33861 ft | 507 kts | 332° |
| 2026-05-08 12:58 | 10.86989 | 41.20676 | 33869 ft | 507 kts | 332° |
| 2026-05-08 12:58 | 10.93308 | 41.17460 | 33880 ft | 507 kts | 332° |
| 2026-05-08 12:59 | 10.99665 | 41.14221 | 33893 ft | 508 kts | 332° |
| 2026-05-08 12:59 | 11.05998 | 41.10994 | 33893 ft | 509 kts | 332° |
| 2026-05-08 13:00 | 11.12337 | 41.07762 | 33889 ft | 509 kts | 332° |
| 2026-05-08 13:00 | 11.18661 | 41.04536 | 33886 ft | 509 kts | 332° |
| 2026-05-08 13:01 | 11.25001 | 41.01300 | 33867 ft | 509 kts | 332° |
| 2026-05-08 13:01 | 11.31350 | 40.98058 | 33863 ft | 509 kts | 332° |
| 2026-05-08 13:02 | 11.37686 | 40.94821 | 33869 ft | 508 kts | 332° |
| 2026-05-08 13:02 | 11.44018 | 40.91585 | 33866 ft | 509 kts | 332° |
| 2026-05-08 13:03 | 11.50383 | 40.88331 | 33881 ft | 509 kts | 332° |
| 2026-05-08 13:03 | 11.56743 | 40.85076 | 33882 ft | 510 kts | 332° |
| 2026-05-08 13:04 | 11.63053 | 40.81846 | 33891 ft | 510 kts | 332° |
| 2026-05-08 13:04 | 11.69410 | 40.78590 | 33906 ft | 509 kts | 332° |
| 2026-05-08 13:05 | 11.75763 | 40.75335 | 33926 ft | 509 kts | 332° |
| 2026-05-08 13:05 | 11.82098 | 40.72087 | 33931 ft | 510 kts | 332° |
| 2026-05-08 13:06 | 11.88455 | 40.68826 | 33926 ft | 510 kts | 332° |
| 2026-05-08 13:06 | 11.94801 | 40.65570 | 33919 ft | 509 kts | 332° |
| 2026-05-08 13:07 | 12.01139 | 40.62315 | 33909 ft | 509 kts | 332° |
| 2026-05-08 13:07 | 12.07490 | 40.59052 | 33900 ft | 510 kts | 332° |
| 2026-05-08 13:08 | 12.13839 | 40.55788 | 33903 ft | 509 kts | 332° |
| 2026-05-08 13:08 | 12.20181 | 40.52525 | 33907 ft | 509 kts | 332° |
| 2026-05-08 13:09 | 12.26520 | 40.49265 | 33916 ft | 509 kts | 332° |
| 2026-05-08 13:09 | 12.32873 | 40.45993 | 33909 ft | 510 kts | 331° |
| 2026-05-08 13:10 | 12.39224 | 40.42722 | 33900 ft | 510 kts | 331° |
| 2026-05-08 13:10 | 12.45569 | 40.39448 | 33889 ft | 509 kts | 330° |
| 2026-05-08 13:11 | 12.51531 | 40.35601 | 33879 ft | 508 kts | 322° |
| 2026-05-08 13:11 | 12.57230 | 40.31352 | 33873 ft | 506 kts | 321° |
| 2026-05-08 13:12 | 12.62923 | 40.27093 | 33879 ft | 506 kts | 322° |
| 2026-05-08 13:12 | 12.68667 | 40.22850 | 33878 ft | 507 kts | 322° |
| 2026-05-08 13:13 | 12.74383 | 40.18649 | 33912 ft | 507 kts | 322° |
| 2026-05-08 13:13 | 12.80141 | 40.14417 | 33942 ft | 506 kts | 322° |
| 2026-05-08 13:14 | 12.85844 | 40.10223 | 33995 ft | 507 kts | 322° |
| 2026-05-08 13:14 | 12.91567 | 40.06012 | 34038 ft | 507 kts | 322° |
| 2026-05-08 13:15 | 12.97306 | 40.01785 | 34078 ft | 507 kts | 322° |
| 2026-05-08 13:15 | 13.03043 | 39.97559 | 34100 ft | 505 kts | 322° |
| 2026-05-08 13:16 | 13.08720 | 39.93373 | 34106 ft | 505 kts | 321° |
| 2026-05-08 13:16 | 13.14450 | 39.89146 | 34122 ft | 506 kts | 321° |
| 2026-05-08 13:17 | 13.20167 | 39.84925 | 34138 ft | 507 kts | 321° |
| 2026-05-08 13:17 | 13.25888 | 39.80700 | 34157 ft | 506 kts | 321° |
| 2026-05-08 13:18 | 13.31635 | 39.76452 | 34187 ft | 507 kts | 321° |
| 2026-05-08 13:18 | 13.37333 | 39.72239 | 34211 ft | 507 kts | 321° |
| 2026-05-08 13:19 | 13.43078 | 39.67989 | 34221 ft | 506 kts | 321° |
| 2026-05-08 13:19 | 13.48783 | 39.63766 | 34240 ft | 506 kts | 321° |
| 2026-05-08 13:20 | 13.54503 | 39.59528 | 34259 ft | 506 kts | 321° |
| 2026-05-08 13:20 | 13.60225 | 39.55286 | 34262 ft | 507 kts | 321° |
| 2026-05-08 13:21 | 13.65948 | 39.51042 | 34258 ft | 507 kts | 321° |
| 2026-05-08 13:21 | 13.71660 | 39.46803 | 34247 ft | 507 kts | 321° |
| 2026-05-08 13:22 | 13.77401 | 39.42540 | 34254 ft | 506 kts | 321° |
| 2026-05-08 13:22 | 13.83141 | 39.38275 | 34271 ft | 506 kts | 321° |
| 2026-05-08 13:23 | 13.88841 | 39.34037 | 34282 ft | 507 kts | 321° |
| 2026-05-08 13:23 | 13.94589 | 39.29761 | 34264 ft | 507 kts | 321° |
| 2026-05-08 13:24 | 14.00320 | 39.25495 | 34245 ft | 507 kts | 321° |
| 2026-05-08 13:24 | 14.06039 | 39.21233 | 34261 ft | 507 kts | 321° |
| 2026-05-08 13:25 | 14.11727 | 39.16995 | 34296 ft | 506 kts | 321° |
| 2026-05-08 13:25 | 14.17460 | 39.12719 | 34321 ft | 507 kts | 320° |
| 2026-05-08 13:26 | 14.23168 | 39.08458 | 34350 ft | 506 kts | 320° |
| 2026-05-08 13:26 | 14.28884 | 39.04190 | 34345 ft | 507 kts | 320° |
| 2026-05-08 13:27 | 14.34590 | 38.99926 | 34321 ft | 507 kts | 320° |
| 2026-05-08 13:27 | 14.40313 | 38.95647 | 34293 ft | 508 kts | 320° |
| 2026-05-08 13:28 | 14.46023 | 38.91375 | 34265 ft | 507 kts | 320° |
| 2026-05-08 13:28 | 14.52293 | 38.87908 | 34245 ft | 517 kts | 340° |
| 2026-05-08 13:29 | 14.59455 | 38.86793 | 34246 ft | 525 kts | 355° |
| 2026-05-08 13:29 | 14.66781 | 38.86749 | 34259 ft | 527 kts | 358° |
| 2026-05-08 13:30 | 14.74141 | 38.86854 | 34279 ft | 528 kts | 358° |
| 2026-05-08 13:30 | 14.81508 | 38.86895 | 34281 ft | 528 kts | 358° |
| 2026-05-08 13:31 | 14.88919 | 38.86895 | 34283 ft | 529 kts | 358° |
| 2026-05-08 13:31 | 14.96271 | 38.86886 | 34290 ft | 528 kts | 358° |
| 2026-05-08 13:32 | 15.03634 | 38.86878 | 34302 ft | 529 kts | 358° |
| 2026-05-08 13:32 | 15.11027 | 38.86872 | 34291 ft | 531 kts | 357° |
| 2026-05-08 13:33 | 15.18448 | 38.86867 | 34284 ft | 531 kts | 357° |
| 2026-05-08 13:33 | 15.25836 | 38.86861 | 34276 ft | 530 kts | 357° |
| 2026-05-08 13:34 | 15.33223 | 38.86921 | 34269 ft | 531 kts | 359° |
| 2026-05-08 13:34 | 15.40630 | 38.87210 | 34251 ft | 532 kts | 360° |
| 2026-05-08 13:35 | 15.48089 | 38.87539 | 34223 ft | 534 kts | 360° |
| 2026-05-08 13:35 | 15.55500 | 38.87846 | 34190 ft | 533 kts | 359° |
| 2026-05-08 13:36 | 15.62956 | 38.88143 | 34135 ft | 534 kts | 359° |
| 2026-05-08 13:36 | 15.70378 | 38.88437 | 34054 ft | 534 kts | 359° |
| 2026-05-08 13:37 | 15.77835 | 38.88733 | 34017 ft | 534 kts | 359° |
| 2026-05-08 13:37 | 15.85276 | 38.89029 | 33987 ft | 536 kts | 359° |
| 2026-05-08 13:38 | 15.92783 | 38.89328 | 33962 ft | 536 kts | 359° |
| 2026-05-08 13:38 | 16.00221 | 38.89618 | 33944 ft | 535 kts | 359° |
| 2026-05-08 13:39 | 16.07692 | 38.89871 | 33928 ft | 535 kts | 359° |
| 2026-05-08 13:39 | 16.15143 | 38.90144 | 33909 ft | 536 kts | 359° |
| 2026-05-08 13:40 | 16.22657 | 38.90442 | 33903 ft | 536 kts | 359° |
| 2026-05-08 13:40 | 16.30140 | 38.90743 | 33887 ft | 536 kts | 359° |
| 2026-05-08 13:41 | 16.37611 | 38.91043 | 33881 ft | 537 kts | 359° |
| 2026-05-08 13:41 | 16.45057 | 38.91341 | 33874 ft | 538 kts | 359° |
| 2026-05-08 13:42 | 16.52546 | 38.91642 | 33874 ft | 538 kts | 359° |
| 2026-05-08 13:42 | 16.60095 | 38.91945 | 33873 ft | 539 kts | 359° |
| 2026-05-08 13:43 | 16.67600 | 38.92247 | 33861 ft | 538 kts | 359° |
| 2026-05-08 13:43 | 16.75106 | 38.92549 | 33842 ft | 538 kts | 359° |
| 2026-05-08 13:44 | 16.82612 | 38.92851 | 33830 ft | 539 kts | 359° |
| 2026-05-08 13:44 | 16.90135 | 38.93155 | 33816 ft | 538 kts | 359° |
| 2026-05-08 13:45 | 16.97646 | 38.93473 | 33818 ft | 538 kts | 360° |
| 2026-05-08 13:45 | 17.05185 | 38.94220 | 33816 ft | 543 kts | 6° |
| 2026-05-08 13:46 | 17.12623 | 38.95680 | 33815 ft | 545 kts | 9° |
| 2026-05-08 13:46 | 17.20073 | 38.97189 | 33807 ft | 543 kts | 6° |
| 2026-05-08 13:47 | 17.27579 | 38.98112 | 33808 ft | 542 kts | 1° |
| 2026-05-08 13:47 | 17.35103 | 38.98541 | 33809 ft | 543 kts | 359° |
| 2026-05-08 13:48 | 17.42718 | 38.98825 | 33806 ft | 543 kts | 358° |
| 2026-05-08 13:48 | 17.50285 | 38.99112 | 33808 ft | 543 kts | 358° |
| 2026-05-08 13:49 | 17.57843 | 38.99417 | 33809 ft | 543 kts | 359° |
| 2026-05-08 13:49 | 17.65398 | 38.99728 | 33808 ft | 543 kts | 358° |
| 2026-05-08 13:50 | 17.72998 | 39.00037 | 33808 ft | 545 kts | 358° |
| 2026-05-08 13:50 | 17.80603 | 39.00347 | 33808 ft | 545 kts | 358° |
| 2026-05-08 13:51 | 17.88186 | 39.00657 | 33809 ft | 545 kts | 358° |
| 2026-05-08 13:51 | 17.95777 | 39.00966 | 33807 ft | 544 kts | 358° |
| 2026-05-08 13:52 | 18.03361 | 39.01275 | 33811 ft | 545 kts | 358° |
| 2026-05-08 13:52 | 18.10994 | 39.01586 | 33811 ft | 546 kts | 358° |
| 2026-05-08 13:53 | 18.18593 | 39.01897 | 33807 ft | 546 kts | 358° |
| 2026-05-08 13:53 | 18.26220 | 39.02208 | 33808 ft | 546 kts | 358° |
| 2026-05-08 13:54 | 18.33830 | 39.02520 | 33807 ft | 547 kts | 358° |
| 2026-05-08 13:54 | 18.41417 | 39.02833 | 33807 ft | 540 kts | 358° |
| 2026-05-08 13:55 | 18.48942 | 39.03143 | 33812 ft | 536 kts | 358° |
| 2026-05-08 13:56 | 18.60139 | 39.03599 | 33811 ft | 537 kts | 358° |
| 2026-05-08 13:56 | 18.67655 | 39.03909 | 33807 ft | 534 kts | 358° |
| 2026-05-08 13:57 | 18.75104 | 39.04216 | 33811 ft | 531 kts | 358° |
| 2026-05-08 13:57 | 18.82494 | 39.04520 | 33811 ft | 532 kts | 358° |
| 2026-05-08 13:58 | 18.89909 | 39.04823 | 33811 ft | 533 kts | 358° |
| 2026-05-08 13:58 | 18.97359 | 39.05131 | 33809 ft | 533 kts | 358° |
| 2026-05-08 13:59 | 19.04783 | 39.05499 | 33809 ft | 533 kts | 358° |
| 2026-05-08 13:59 | 19.12195 | 39.05654 | 33814 ft | 525 kts | 349° |
| 2026-05-08 14:00 | 19.19287 | 39.04219 | 33807 ft | 518 kts | 339° |
| 2026-05-08 14:00 | 19.26212 | 39.02163 | 33808 ft | 515 kts | 338° |
| 2026-05-08 14:01 | 19.33136 | 39.00094 | 33808 ft | 513 kts | 338° |
| 2026-05-08 14:01 | 19.40049 | 38.98098 | 33803 ft | 516 kts | 339° |
| 2026-05-08 14:02 | 19.47020 | 38.96110 | 33801 ft | 516 kts | 339° |
| 2026-05-08 14:02 | 19.53936 | 38.94139 | 33804 ft | 514 kts | 339° |
| 2026-05-08 14:03 | 19.60873 | 38.92157 | 33806 ft | 513 kts | 339° |
| 2026-05-08 14:03 | 19.67797 | 38.90173 | 33795 ft | 513 kts | 339° |
| 2026-05-08 14:04 | 19.74679 | 38.88202 | 33796 ft | 510 kts | 339° |
| 2026-05-08 14:04 | 19.81549 | 38.86230 | 33800 ft | 512 kts | 339° |
| 2026-05-08 14:05 | 19.88425 | 38.84257 | 33798 ft | 511 kts | 339° |
| 2026-05-08 14:05 | 19.95301 | 38.82281 | 33796 ft | 510 kts | 339° |
| 2026-05-08 14:06 | 20.02166 | 38.80306 | 33803 ft | 510 kts | 339° |
| 2026-05-08 14:06 | 20.08989 | 38.78342 | 33801 ft | 510 kts | 339° |
| 2026-05-08 14:07 | 20.15880 | 38.76356 | 33798 ft | 510 kts | 339° |
| 2026-05-08 14:07 | 20.22736 | 38.74379 | 33799 ft | 510 kts | 339° |
| 2026-05-08 14:07 | 20.26165 | 38.73388 | 33597 ft | 512 kts | 339° |
| 2026-05-08 14:08 | 20.29596 | 38.72398 | 33338 ft | 509 kts | 339° |
| 2026-05-08 14:08 | 20.33028 | 38.71408 | 33083 ft | 503 kts | 339° |
| 2026-05-08 14:08 | 20.36385 | 38.70440 | 32855 ft | 496 kts | 339° |
| 2026-05-08 14:08 | 20.39673 | 38.69492 | 32628 ft | 490 kts | 339° |
| 2026-05-08 14:09 | 20.42944 | 38.68545 | 32466 ft | 485 kts | 339° |
| 2026-05-08 14:09 | 20.46185 | 38.67608 | 32678 ft | 480 kts | 339° |
| 2026-05-08 14:09 | 20.49401 | 38.66675 | 32907 ft | 480 kts | 339° |
| 2026-05-08 14:09 | 20.52644 | 38.65734 | 33128 ft | 479 kts | 339° |
| 2026-05-08 14:10 | 20.55874 | 38.64796 | 33386 ft | 479 kts | 339° |
| 2026-05-08 14:10 | 20.59087 | 38.63863 | 33643 ft | 479 kts | 339° |
| 2026-05-08 14:10 | 20.62307 | 38.62928 | 33896 ft | 478 kts | 338° |
| 2026-05-08 14:10 | 20.65502 | 38.62000 | 34149 ft | 477 kts | 338° |
| 2026-05-08 14:11 | 20.68725 | 38.61064 | 34414 ft | 476 kts | 338° |
| 2026-05-08 14:11 | 20.71885 | 38.60146 | 34666 ft | 475 kts | 338° |
| 2026-05-08 14:11 | 20.75101 | 38.59210 | 34924 ft | 474 kts | 338° |
| 2026-05-08 14:11 | 20.78310 | 38.58276 | 35185 ft | 473 kts | 338° |
| 2026-05-08 14:12 | 20.81522 | 38.57536 | 35433 ft | 478 kts | 348° |
| 2026-05-08 14:12 | 20.84866 | 38.57495 | 35684 ft | 486 kts | 1° |
| 2026-05-08 14:12 | 20.88239 | 38.58206 | 35793 ft | 495 kts | 14° |
| 2026-05-08 14:13 | 20.94522 | 38.61429 | 35813 ft | 508 kts | 29° |
| 2026-05-08 14:13 | 21.00551 | 38.65509 | 35817 ft | 516 kts | 31° |
| 2026-05-08 14:14 | 21.06659 | 38.69666 | 35817 ft | 524 kts | 30° |
| 2026-05-08 14:14 | 21.12917 | 38.73826 | 35817 ft | 532 kts | 30° |
| 2026-05-08 14:15 | 21.19268 | 38.78007 | 35820 ft | 539 kts | 30° |
| 2026-05-08 14:15 | 21.25713 | 38.82251 | 35812 ft | 546 kts | 30° |
| 2026-05-08 14:16 | 21.32238 | 38.86554 | 35810 ft | 553 kts | 30° |
| 2026-05-08 14:16 | 21.38807 | 38.90895 | 35805 ft | 555 kts | 30° |
| 2026-05-08 14:17 | 21.45385 | 38.95245 | 35813 ft | 552 kts | 30° |
| 2026-05-08 14:17 | 21.51911 | 38.99567 | 35803 ft | 551 kts | 30° |
| 2026-05-08 14:18 | 21.58425 | 39.03881 | 35811 ft | 551 kts | 29° |
| 2026-05-08 14:18 | 21.61843 | 39.05756 | 35813 ft | 548 kts | 18° |
| 2026-05-08 14:18 | 21.65477 | 39.06907 | 35821 ft | 541 kts | 6° |
| 2026-05-08 14:18 | 21.69209 | 39.07297 | 35820 ft | 533 kts | 354° |
| 2026-05-08 14:19 | 21.72856 | 39.07042 | 35813 ft | 526 kts | 346° |
| 2026-05-08 14:19 | 21.76429 | 39.06136 | 35823 ft | 514 kts | 334° |
| 2026-05-08 14:19 | 21.79631 | 39.04597 | 35823 ft | 505 kts | 324° |
| 2026-05-08 14:20 | 21.85416 | 39.00418 | 35840 ft | 497 kts | 316° |
| 2026-05-08 14:20 | 21.90800 | 38.95859 | 35837 ft | 493 kts | 315° |
| 2026-05-08 14:21 | 21.96181 | 38.91247 | 35833 ft | 489 kts | 315° |
| 2026-05-08 14:21 | 22.01518 | 38.86697 | 35839 ft | 492 kts | 315° |
| 2026-05-08 14:22 | 22.06859 | 38.82151 | 35833 ft | 489 kts | 315° |
| 2026-05-08 14:22 | 22.12206 | 38.77590 | 35837 ft | 489 kts | 315° |
| 2026-05-08 14:23 | 22.17505 | 38.73063 | 35834 ft | 482 kts | 316° |
| 2026-05-08 14:23 | 22.22736 | 38.68583 | 35836 ft | 483 kts | 316° |
| 2026-05-08 14:24 | 22.28017 | 38.64045 | 35832 ft | 484 kts | 315° |
| 2026-05-08 14:24 | 22.33286 | 38.59510 | 35831 ft | 483 kts | 315° |
| 2026-05-08 14:25 | 22.38535 | 38.54987 | 35825 ft | 480 kts | 316° |
| 2026-05-08 14:25 | 22.43788 | 38.50456 | 35823 ft | 480 kts | 316° |
| 2026-05-08 14:26 | 22.48981 | 38.45973 | 35819 ft | 474 kts | 316° |
| 2026-05-08 14:26 | 22.54164 | 38.41492 | 35821 ft | 476 kts | 316° |
| 2026-05-08 14:27 | 22.59327 | 38.37024 | 35814 ft | 476 kts | 316° |
| 2026-05-08 14:27 | 22.64510 | 38.32534 | 35827 ft | 475 kts | 316° |
| 2026-05-08 14:28 | 22.69642 | 38.28087 | 35815 ft | 472 kts | 316° |
| 2026-05-08 14:28 | 22.74782 | 38.23626 | 35820 ft | 471 kts | 316° |
| 2026-05-08 14:29 | 22.79869 | 38.19208 | 35813 ft | 470 kts | 316° |
| 2026-05-08 14:29 | 22.84943 | 38.14795 | 35823 ft | 468 kts | 316° |
| 2026-05-08 14:30 | 22.90043 | 38.10356 | 35826 ft | 469 kts | 317° |
| 2026-05-08 14:30 | 22.95122 | 38.05933 | 35819 ft | 465 kts | 317° |
| 2026-05-08 14:31 | 23.00151 | 38.01547 | 35817 ft | 464 kts | 317° |
| 2026-05-08 14:31 | 23.05160 | 37.97174 | 35819 ft | 461 kts | 317° |
| 2026-05-08 14:32 | 23.12108 | 37.91099 | 35826 ft | 465 kts | 317° |
| 2026-05-08 14:32 | 23.17019 | 37.86803 | 35827 ft | 465 kts | 317° |
| 2026-05-08 14:33 | 23.22029 | 37.82414 | 35834 ft | 464 kts | 317° |
| 2026-05-08 14:33 | 23.27062 | 37.78002 | 35833 ft | 463 kts | 317° |
| 2026-05-08 14:34 | 23.32045 | 37.73630 | 35837 ft | 462 kts | 317° |
| 2026-05-08 14:34 | 23.37033 | 37.69247 | 35839 ft | 461 kts | 317° |
| 2026-05-08 14:35 | 23.42042 | 37.64842 | 35829 ft | 462 kts | 317° |
| 2026-05-08 14:35 | 23.47063 | 37.60422 | 35834 ft | 461 kts | 317° |
| 2026-05-08 14:36 | 23.52028 | 37.56049 | 35831 ft | 459 kts | 317° |
| 2026-05-08 14:36 | 23.57015 | 37.51649 | 35834 ft | 459 kts | 318° |
| 2026-05-08 14:37 | 23.61950 | 37.47293 | 35825 ft | 457 kts | 318° |
| 2026-05-08 14:37 | 23.66898 | 37.42919 | 35829 ft | 458 kts | 318° |
| 2026-05-08 14:38 | 23.71843 | 37.38543 | 35825 ft | 457 kts | 319° |
| 2026-05-08 14:38 | 23.76761 | 37.34188 | 35830 ft | 456 kts | 318° |
| 2026-05-08 14:39 | 23.81680 | 37.29827 | 35825 ft | 456 kts | 319° |
| 2026-05-08 14:39 | 23.86606 | 37.25456 | 35827 ft | 452 kts | 319° |
| 2026-05-08 14:40 | 23.91482 | 37.21126 | 35825 ft | 453 kts | 319° |
| 2026-05-08 14:40 | 23.96392 | 37.16758 | 35831 ft | 455 kts | 319° |
| 2026-05-08 14:41 | 24.01278 | 37.12412 | 35829 ft | 454 kts | 319° |
| 2026-05-08 14:41 | 24.06156 | 37.08065 | 35835 ft | 452 kts | 320° |
| 2026-05-08 14:42 | 24.11046 | 37.03702 | 35835 ft | 453 kts | 320° |
| 2026-05-08 14:42 | 24.15953 | 36.99322 | 35836 ft | 453 kts | 320° |
| 2026-05-08 14:43 | 24.20818 | 36.94975 | 35841 ft | 452 kts | 320° |
| 2026-05-08 14:43 | 24.25670 | 36.90635 | 35840 ft | 452 kts | 320° |
| 2026-05-08 14:44 | 24.30561 | 36.86256 | 35838 ft | 452 kts | 320° |
| 2026-05-08 14:44 | 24.35434 | 36.81887 | 35842 ft | 451 kts | 320° |
| 2026-05-08 14:45 | 24.40269 | 36.77549 | 35857 ft | 449 kts | 321° |
| 2026-05-08 14:45 | 24.45085 | 36.73222 | 35851 ft | 449 kts | 320° |
| 2026-05-08 14:46 | 24.49936 | 36.68861 | 35847 ft | 450 kts | 320° |
| 2026-05-08 14:46 | 24.54790 | 36.64492 | 35853 ft | 449 kts | 321° |
| 2026-05-08 14:47 | 24.59590 | 36.60134 | 35843 ft | 448 kts | 317° |
| 2026-05-08 14:47 | 24.61631 | 36.57568 | 35862 ft | 450 kts | 305° |
| 2026-05-08 14:47 | 24.63153 | 36.54555 | 35854 ft | 452 kts | 297° |
| 2026-05-08 14:48 | 24.65409 | 36.48082 | 35859 ft | 455 kts | 291° |
| 2026-05-08 14:48 | 24.67420 | 36.41485 | 35859 ft | 455 kts | 291° |
| 2026-05-08 14:49 | 24.69424 | 36.34922 | 35859 ft | 453 kts | 291° |
| 2026-05-08 14:49 | 24.71444 | 36.28376 | 35861 ft | 454 kts | 291° |
| 2026-05-08 14:50 | 24.73475 | 36.21812 | 35854 ft | 455 kts | 291° |
| 2026-05-08 14:50 | 24.75511 | 36.15232 | 35861 ft | 455 kts | 291° |
| 2026-05-08 14:51 | 24.77538 | 36.08660 | 35857 ft | 454 kts | 291° |
| 2026-05-08 14:51 | 24.79562 | 36.02097 | 35860 ft | 454 kts | 291° |
| 2026-05-08 14:52 | 24.82590 | 35.92252 | 35857 ft | 453 kts | 291° |
| 2026-05-08 14:53 | 24.84605 | 35.85684 | 35859 ft | 454 kts | 292° |
| 2026-05-08 14:53 | 24.86611 | 35.79136 | 35857 ft | 454 kts | 292° |
| 2026-05-08 14:54 | 24.88626 | 35.72546 | 35858 ft | 454 kts | 291° |
| 2026-05-08 14:54 | 24.90634 | 35.65970 | 35852 ft | 457 kts | 292° |
| 2026-05-08 14:55 | 24.92642 | 35.59380 | 35845 ft | 454 kts | 291° |
| 2026-05-08 14:55 | 24.94650 | 35.52776 | 35849 ft | 455 kts | 291° |
| 2026-05-08 14:56 | 24.96652 | 35.46183 | 35851 ft | 457 kts | 291° |
| 2026-05-08 14:56 | 24.98666 | 35.39539 | 35850 ft | 456 kts | 292° |
| 2026-05-08 14:57 | 25.00662 | 35.32937 | 35851 ft | 455 kts | 291° |
| 2026-05-08 14:57 | 25.02668 | 35.26302 | 35852 ft | 457 kts | 291° |
| 2026-05-08 14:58 | 25.04661 | 35.19690 | 35854 ft | 457 kts | 291° |
| 2026-05-08 14:58 | 25.07150 | 35.13311 | 35856 ft | 450 kts | 306° |
| 2026-05-08 14:59 | 25.11217 | 35.08090 | 35858 ft | 449 kts | 315° |
| 2026-05-08 14:59 | 25.17890 | 35.00854 | 35874 ft | 448 kts | 316° |
| 2026-05-08 15:00 | 25.22329 | 34.96056 | 35876 ft | 448 kts | 316° |
| 2026-05-08 15:00 | 25.26777 | 34.91216 | 35871 ft | 449 kts | 316° |
| 2026-05-08 15:01 | 25.31215 | 34.86369 | 35870 ft | 447 kts | 316° |
| 2026-05-08 15:01 | 25.35616 | 34.81556 | 35869 ft | 447 kts | 316° |
| 2026-05-08 15:02 | 25.40037 | 34.76716 | 35872 ft | 446 kts | 316° |
| 2026-05-08 15:02 | 25.44443 | 34.71887 | 35877 ft | 448 kts | 316° |
| 2026-05-08 15:03 | 25.48850 | 34.67051 | 35890 ft | 446 kts | 316° |
| 2026-05-08 15:03 | 25.53251 | 34.62217 | 35901 ft | 445 kts | 316° |
| 2026-05-08 15:04 | 25.57636 | 34.57394 | 35906 ft | 444 kts | 316° |
| 2026-05-08 15:04 | 25.61804 | 34.52349 | 35909 ft | 446 kts | 312° |
| 2026-05-08 15:05 | 25.65824 | 34.47082 | 35909 ft | 445 kts | 311° |
| 2026-05-08 15:05 | 25.69789 | 34.41883 | 35913 ft | 444 kts | 311° |
| 2026-05-08 15:06 | 25.73807 | 34.36636 | 35919 ft | 445 kts | 312° |
| 2026-05-08 15:06 | 25.77812 | 34.31413 | 35929 ft | 444 kts | 311° |
| 2026-05-08 15:07 | 25.81789 | 34.26224 | 35936 ft | 444 kts | 311° |
| 2026-05-08 15:07 | 25.85808 | 34.20974 | 35935 ft | 445 kts | 311° |
| 2026-05-08 15:08 | 25.89125 | 34.16637 | 35933 ft | 445 kts | 312° |
| 2026-05-08 15:08 | 25.93798 | 34.10521 | 35940 ft | 444 kts | 312° |
| 2026-05-08 15:09 | 25.97782 | 34.05298 | 35944 ft | 442 kts | 311° |
| 2026-05-08 15:09 | 26.01763 | 34.00076 | 35949 ft | 444 kts | 311° |
| 2026-05-08 15:10 | 26.05741 | 33.94850 | 35949 ft | 444 kts | 312° |
| 2026-05-08 15:10 | 26.09725 | 33.89610 | 35953 ft | 445 kts | 312° |
| 2026-05-08 15:11 | 26.13736 | 33.84329 | 35957 ft | 445 kts | 311° |
| 2026-05-08 15:11 | 26.17731 | 33.79063 | 35964 ft | 444 kts | 312° |
| 2026-05-08 15:12 | 26.21717 | 33.73803 | 35971 ft | 445 kts | 312° |
| 2026-05-08 15:12 | 26.25706 | 33.68533 | 35974 ft | 445 kts | 311° |
| 2026-05-08 15:13 | 26.29697 | 33.63253 | 35979 ft | 446 kts | 311° |
| 2026-05-08 15:13 | 26.33661 | 33.58002 | 35983 ft | 444 kts | 311° |
| 2026-05-08 15:14 | 26.37625 | 33.52747 | 35988 ft | 444 kts | 311° |
| 2026-05-08 15:14 | 26.41599 | 33.47472 | 35986 ft | 446 kts | 311° |
| 2026-05-08 15:15 | 26.45600 | 33.42155 | 35976 ft | 447 kts | 311° |
| 2026-05-08 15:15 | 26.49598 | 33.36834 | 35971 ft | 448 kts | 311° |
| 2026-05-08 15:16 | 26.53598 | 33.31506 | 35963 ft | 447 kts | 311° |
| 2026-05-08 15:16 | 26.57572 | 33.26205 | 35956 ft | 446 kts | 311° |
| 2026-05-08 15:17 | 26.61552 | 33.20890 | 35958 ft | 447 kts | 311° |
| 2026-05-08 15:17 | 26.65530 | 33.15572 | 35957 ft | 447 kts | 311° |
| 2026-05-08 15:18 | 26.69518 | 33.10235 | 35946 ft | 447 kts | 311° |
| 2026-05-08 15:18 | 26.73502 | 33.04895 | 35927 ft | 448 kts | 311° |
| 2026-05-08 15:19 | 26.77500 | 32.99531 | 35918 ft | 448 kts | 311° |
| 2026-05-08 15:19 | 26.81510 | 32.94143 | 35925 ft | 449 kts | 311° |
| 2026-05-08 15:20 | 26.85471 | 32.88816 | 35926 ft | 449 kts | 311° |
| 2026-05-08 15:20 | 26.89483 | 32.83414 | 35924 ft | 450 kts | 311° |
| 2026-05-08 15:21 | 26.93469 | 32.78040 | 35929 ft | 451 kts | 311° |
| 2026-05-08 15:21 | 26.97465 | 32.72646 | 35929 ft | 449 kts | 311° |
| 2026-05-08 15:22 | 27.01444 | 32.67267 | 35944 ft | 449 kts | 311° |
| 2026-05-08 15:22 | 27.05417 | 32.61891 | 35968 ft | 448 kts | 311° |
| 2026-05-08 15:23 | 27.09372 | 32.56532 | 35987 ft | 447 kts | 310° |
| 2026-05-08 15:23 | 27.13346 | 32.51143 | 36002 ft | 450 kts | 310° |
| 2026-05-08 15:24 | 27.17333 | 32.45726 | 36008 ft | 449 kts | 311° |
| 2026-05-08 15:24 | 27.21303 | 32.40327 | 36016 ft | 449 kts | 310° |
| 2026-05-08 15:25 | 27.25270 | 32.34927 | 36019 ft | 449 kts | 310° |
| 2026-05-08 15:25 | 27.29237 | 32.29519 | 36019 ft | 450 kts | 310° |
| 2026-05-08 15:26 | 27.33161 | 32.24019 | 36021 ft | 449 kts | 308° |
| 2026-05-08 15:26 | 27.36967 | 32.18458 | 36016 ft | 449 kts | 308° |
| 2026-05-08 15:27 | 27.40750 | 32.12915 | 36009 ft | 449 kts | 308° |
| 2026-05-08 15:27 | 27.44576 | 32.07319 | 36003 ft | 450 kts | 308° |
| 2026-05-08 15:28 | 27.48384 | 32.01748 | 36000 ft | 450 kts | 308° |
| 2026-05-08 15:28 | 27.52199 | 31.96162 | 35994 ft | 451 kts | 308° |
| 2026-05-08 15:29 | 27.56006 | 31.90581 | 35992 ft | 451 kts | 308° |
| 2026-05-08 15:29 | 27.59806 | 31.85002 | 35991 ft | 451 kts | 308° |
| 2026-05-08 15:30 | 27.63635 | 31.79373 | 35989 ft | 451 kts | 308° |
| 2026-05-08 15:30 | 27.67438 | 31.73777 | 35988 ft | 450 kts | 308° |
| 2026-05-08 15:31 | 27.71242 | 31.68172 | 35987 ft | 450 kts | 308° |
| 2026-05-08 15:31 | 27.75033 | 31.62578 | 35983 ft | 451 kts | 308° |
| 2026-05-08 15:32 | 27.78845 | 31.56946 | 35983 ft | 451 kts | 308° |
| 2026-05-08 15:32 | 27.82636 | 31.51337 | 35981 ft | 450 kts | 308° |
| 2026-05-08 15:33 | 27.86437 | 31.45706 | 35977 ft | 451 kts | 308° |
| 2026-05-08 15:33 | 27.90219 | 31.40097 | 35977 ft | 451 kts | 308° |
| 2026-05-08 15:34 | 27.94019 | 31.34454 | 35984 ft | 451 kts | 308° |
| 2026-05-08 15:34 | 27.97824 | 31.28797 | 35981 ft | 451 kts | 308° |
| 2026-05-08 15:35 | 28.01600 | 31.23174 | 35979 ft | 450 kts | 308° |
| 2026-05-08 15:35 | 28.05395 | 31.17514 | 35978 ft | 450 kts | 308° |
| 2026-05-08 15:36 | 28.09129 | 31.11833 | 35977 ft | 451 kts | 306° |
| 2026-05-08 15:36 | 28.12635 | 31.05933 | 35973 ft | 452 kts | 304° |
| 2026-05-08 15:37 | 28.16084 | 31.00023 | 35974 ft | 452 kts | 304° |
| 2026-05-08 15:37 | 28.19563 | 30.94082 | 35970 ft | 452 kts | 305° |
| 2026-05-08 15:38 | 28.23025 | 30.88183 | 35965 ft | 451 kts | 305° |
| 2026-05-08 15:38 | 28.26511 | 30.82240 | 35963 ft | 451 kts | 305° |
| 2026-05-08 15:39 | 28.29977 | 30.76325 | 35957 ft | 451 kts | 305° |
| 2026-05-08 15:39 | 28.33431 | 30.70423 | 35958 ft | 451 kts | 305° |
| 2026-05-08 15:40 | 28.36921 | 30.64450 | 35964 ft | 453 kts | 305° |
| 2026-05-08 15:40 | 28.40389 | 30.58505 | 35965 ft | 452 kts | 305° |
| 2026-05-08 15:41 | 28.43861 | 30.52548 | 35983 ft | 454 kts | 305° |
| 2026-05-08 15:41 | 28.47323 | 30.46596 | 35985 ft | 453 kts | 305° |
| 2026-05-08 15:42 | 28.50764 | 30.40675 | 35990 ft | 452 kts | 305° |
| 2026-05-08 15:42 | 28.54222 | 30.34715 | 35993 ft | 452 kts | 304° |
| 2026-05-08 15:43 | 28.57681 | 30.28746 | 35995 ft | 454 kts | 304° |
| 2026-05-08 15:43 | 28.61149 | 30.22751 | 35993 ft | 453 kts | 304° |
| 2026-05-08 15:44 | 28.64593 | 30.16790 | 35999 ft | 453 kts | 304° |
| 2026-05-08 15:44 | 28.68062 | 30.10778 | 36001 ft | 454 kts | 304° |
| 2026-05-08 15:45 | 28.71497 | 30.04814 | 36002 ft | 451 kts | 304° |
| 2026-05-08 15:45 | 28.74942 | 29.98826 | 36004 ft | 453 kts | 304° |
| 2026-05-08 15:46 | 28.78387 | 29.92831 | 36008 ft | 452 kts | 304° |
| 2026-05-08 15:46 | 28.81827 | 29.86835 | 36010 ft | 453 kts | 304° |
| 2026-05-08 15:47 | 28.85257 | 29.80847 | 36014 ft | 453 kts | 304° |
| 2026-05-08 15:47 | 28.88700 | 29.74829 | 36018 ft | 452 kts | 304° |
| 2026-05-08 15:48 | 28.93839 | 29.65829 | 36019 ft | 451 kts | 304° |
| 2026-05-08 15:49 | 28.97247 | 29.59851 | 36028 ft | 452 kts | 304° |
| 2026-05-08 15:49 | 29.00649 | 29.53798 | 36030 ft | 453 kts | 303° |
| 2026-05-08 15:50 | 29.03827 | 29.47633 | 36038 ft | 453 kts | 302° |
| 2026-05-08 15:50 | 29.07092 | 29.41497 | 36035 ft | 452 kts | 303° |
| 2026-05-08 15:51 | 29.10463 | 29.35422 | 36042 ft | 452 kts | 304° |
| 2026-05-08 15:51 | 29.12427 | 29.32609 | 36050 ft | 451 kts | 315° |
| 2026-05-08 15:51 | 29.14751 | 29.30195 | 36051 ft | 451 kts | 320° |
| 2026-05-08 15:52 | 29.19706 | 29.25824 | 36059 ft | 451 kts | 322° |
| 2026-05-08 15:52 | 29.24729 | 29.21538 | 36053 ft | 450 kts | 322° |
| 2026-05-08 15:53 | 29.29835 | 29.17381 | 36062 ft | 451 kts | 324° |
| 2026-05-08 15:53 | 29.34993 | 29.13297 | 36064 ft | 451 kts | 323° |
| 2026-05-08 15:54 | 29.40043 | 29.09059 | 36066 ft | 450 kts | 322° |
| 2026-05-08 15:54 | 29.45042 | 29.04734 | 36069 ft | 451 kts | 322° |
| 2026-05-08 15:55 | 29.50025 | 29.00382 | 36065 ft | 452 kts | 322° |
| 2026-05-08 15:55 | 29.57513 | 28.93825 | 36066 ft | 451 kts | 322° |
| 2026-05-08 15:56 | 29.62504 | 28.89449 | 36067 ft | 452 kts | 321° |
| 2026-05-08 15:56 | 29.67475 | 28.85084 | 36067 ft | 451 kts | 321° |
| 2026-05-08 15:57 | 29.72464 | 28.80699 | 36067 ft | 452 kts | 321° |
| 2026-05-08 15:57 | 29.77453 | 28.76307 | 36069 ft | 452 kts | 321° |
| 2026-05-08 15:58 | 29.82439 | 28.71912 | 36071 ft | 452 kts | 321° |
| 2026-05-08 15:58 | 29.84924 | 28.69719 | 36353 ft | 447 kts | 321° |
| 2026-05-08 15:58 | 29.87387 | 28.67545 | 36653 ft | 447 kts | 321° |
| 2026-05-08 15:59 | 29.89867 | 28.65355 | 36957 ft | 446 kts | 321° |
| 2026-05-08 15:59 | 29.92300 | 28.63204 | 37256 ft | 445 kts | 321° |
| 2026-05-08 15:59 | 29.94772 | 28.61018 | 37566 ft | 444 kts | 321° |
| 2026-05-08 15:59 | 29.97221 | 28.58850 | 37875 ft | 443 kts | 321° |
| 2026-05-08 16:00 | 29.99636 | 28.56712 | 38046 ft | 444 kts | 321° |
| 2026-05-08 16:00 | 30.02095 | 28.54533 | 38060 ft | 447 kts | 321° |
| 2026-05-08 16:00 | 30.07058 | 28.50128 | 38060 ft | 454 kts | 321° |
| 2026-05-08 16:01 | 30.12091 | 28.45657 | 38060 ft | 458 kts | 321° |
| 2026-05-08 16:01 | 30.17137 | 28.41170 | 38058 ft | 460 kts | 321° |
| 2026-05-08 16:02 | 30.22209 | 28.36652 | 38066 ft | 461 kts | 321° |
| 2026-05-08 16:02 | 30.27280 | 28.32130 | 38066 ft | 462 kts | 320° |
| 2026-05-08 16:03 | 30.32387 | 28.27570 | 38073 ft | 462 kts | 320° |
| 2026-05-08 16:03 | 30.37468 | 28.23027 | 38081 ft | 462 kts | 320° |
| 2026-05-08 16:04 | 30.42520 | 28.18503 | 38088 ft | 462 kts | 320° |
| 2026-05-08 16:04 | 30.47634 | 28.13918 | 38098 ft | 463 kts | 320° |
| 2026-05-08 16:05 | 30.52693 | 28.09376 | 38102 ft | 462 kts | 320° |
| 2026-05-08 16:05 | 30.57794 | 28.04789 | 38106 ft | 463 kts | 320° |
| 2026-05-08 16:06 | 30.62860 | 28.00229 | 38107 ft | 462 kts | 320° |
| 2026-05-08 16:06 | 30.67914 | 27.95672 | 38110 ft | 462 kts | 320° |
| 2026-05-08 16:07 | 30.73004 | 27.91077 | 38114 ft | 462 kts | 320° |
| 2026-05-08 16:07 | 30.78077 | 27.86492 | 38119 ft | 462 kts | 320° |
| 2026-05-08 16:08 | 30.83149 | 27.81900 | 38116 ft | 462 kts | 320° |
| 2026-05-08 16:08 | 30.88209 | 27.77314 | 38120 ft | 462 kts | 320° |
| 2026-05-08 16:09 | 30.93281 | 27.72710 | 38123 ft | 462 kts | 320° |
| 2026-05-08 16:09 | 30.98317 | 27.68132 | 38122 ft | 462 kts | 320° |
| 2026-05-08 16:10 | 31.03378 | 27.63525 | 38129 ft | 462 kts | 319° |
| 2026-05-08 16:10 | 31.08467 | 27.58887 | 38128 ft | 462 kts | 319° |
| 2026-05-08 16:11 | 31.12888 | 27.53560 | 38126 ft | 455 kts | 300° |
| 2026-05-08 16:11 | 31.15438 | 27.46810 | 38129 ft | 456 kts | 289° |
| 2026-05-08 16:12 | 31.17347 | 27.39818 | 38130 ft | 457 kts | 288° |
| 2026-05-08 16:12 | 31.19212 | 27.32696 | 38134 ft | 457 kts | 287° |
| 2026-05-08 16:13 | 31.21293 | 27.25776 | 38135 ft | 456 kts | 297° |
| 2026-05-08 16:13 | 31.23080 | 27.22709 | 38136 ft | 457 kts | 309° |
| 2026-05-08 16:13 | 31.25390 | 27.20139 | 38143 ft | 461 kts | 319° |
| 2026-05-08 16:14 | 31.30656 | 27.15873 | 38137 ft | 464 kts | 324° |
| 2026-05-08 16:14 | 31.36192 | 27.11888 | 38139 ft | 465 kts | 325° |
| 2026-05-08 16:15 | 31.41698 | 27.07956 | 38134 ft | 465 kts | 325° |
| 2026-05-08 16:15 | 31.47208 | 27.03992 | 38130 ft | 465 kts | 325° |
| 2026-05-08 16:16 | 31.52703 | 27.00020 | 38128 ft | 465 kts | 325° |
| 2026-05-08 16:16 | 31.58221 | 26.96021 | 38119 ft | 465 kts | 324° |
| 2026-05-08 16:17 | 31.63707 | 26.92038 | 38123 ft | 465 kts | 325° |
| 2026-05-08 16:17 | 31.69211 | 26.88034 | 38121 ft | 464 kts | 325° |
| 2026-05-08 16:18 | 31.74686 | 26.84047 | 38121 ft | 464 kts | 324° |
| 2026-05-08 16:18 | 31.80174 | 26.80044 | 38118 ft | 465 kts | 324° |
| 2026-05-08 16:19 | 31.85659 | 26.76037 | 38119 ft | 465 kts | 324° |
| 2026-05-08 16:19 | 31.91132 | 26.72032 | 38121 ft | 465 kts | 324° |
| 2026-05-08 16:20 | 31.96638 | 26.67997 | 38120 ft | 465 kts | 324° |
| 2026-05-08 16:20 | 32.02090 | 26.63997 | 38120 ft | 464 kts | 324° |
| 2026-05-08 16:21 | 32.07589 | 26.59955 | 38119 ft | 465 kts | 324° |
| 2026-05-08 16:21 | 32.13058 | 26.55929 | 38122 ft | 466 kts | 324° |
| 2026-05-08 16:22 | 32.18546 | 26.51885 | 38138 ft | 462 kts | 324° |
| 2026-05-08 16:22 | 32.23944 | 26.47903 | 38149 ft | 459 kts | 324° |
| 2026-05-08 16:23 | 32.29380 | 26.43884 | 38150 ft | 461 kts | 324° |
| 2026-05-08 16:23 | 32.34807 | 26.39864 | 38147 ft | 461 kts | 324° |
| 2026-05-08 16:24 | 32.40234 | 26.35841 | 38149 ft | 460 kts | 324° |
| 2026-05-08 16:24 | 32.45664 | 26.31811 | 38148 ft | 459 kts | 323° |
| 2026-05-08 16:25 | 32.51055 | 26.27801 | 38144 ft | 459 kts | 323° |
| 2026-05-08 16:25 | 32.56482 | 26.23760 | 38149 ft | 460 kts | 323° |
| 2026-05-08 16:26 | 32.61940 | 26.19690 | 38144 ft | 460 kts | 323° |
| 2026-05-08 16:26 | 32.67354 | 26.15647 | 38144 ft | 459 kts | 323° |
| 2026-05-08 16:27 | 32.72758 | 26.11605 | 38145 ft | 459 kts | 323° |
| 2026-05-08 16:27 | 32.78205 | 26.07526 | 38139 ft | 459 kts | 323° |
| 2026-05-08 16:28 | 32.83602 | 26.03478 | 38141 ft | 459 kts | 323° |
| 2026-05-08 16:28 | 32.88997 | 25.99426 | 38142 ft | 459 kts | 323° |
| 2026-05-08 16:29 | 32.94394 | 25.95365 | 38137 ft | 458 kts | 323° |
| 2026-05-08 16:29 | 32.99748 | 25.91331 | 38137 ft | 456 kts | 323° |
| 2026-05-08 16:30 | 33.05126 | 25.87273 | 38137 ft | 457 kts | 323° |
| 2026-05-08 16:30 | 33.10507 | 25.83207 | 38138 ft | 458 kts | 322° |
| 2026-05-08 16:31 | 33.15904 | 25.79122 | 38138 ft | 459 kts | 323° |
| 2026-05-08 16:31 | 33.21306 | 25.75028 | 38138 ft | 459 kts | 322° |
| 2026-05-08 16:32 | 33.26671 | 25.70957 | 38142 ft | 459 kts | 322° |
| 2026-05-08 16:32 | 33.32045 | 25.66872 | 38146 ft | 459 kts | 323° |
| 2026-05-08 16:33 | 33.37446 | 25.62756 | 38144 ft | 459 kts | 323° |
| 2026-05-08 16:33 | 33.42821 | 25.58651 | 38138 ft | 459 kts | 322° |
| 2026-05-08 16:34 | 33.48183 | 25.54548 | 38141 ft | 460 kts | 322° |
| 2026-05-08 16:34 | 33.53561 | 25.50427 | 38144 ft | 459 kts | 322° |
| 2026-05-08 16:35 | 33.58935 | 25.46303 | 38142 ft | 458 kts | 322° |
| 2026-05-08 16:35 | 33.64281 | 25.42195 | 38139 ft | 459 kts | 322° |
| 2026-05-08 16:36 | 33.69659 | 25.38058 | 38142 ft | 459 kts | 322° |
| 2026-05-08 16:36 | 33.75022 | 25.33929 | 38141 ft | 458 kts | 322° |
| 2026-05-08 16:37 | 33.80425 | 25.29762 | 38142 ft | 458 kts | 321° |
| 2026-05-08 16:37 | 33.85746 | 25.25656 | 38138 ft | 458 kts | 321° |
| 2026-05-08 16:38 | 33.91108 | 25.21511 | 38137 ft | 459 kts | 321° |
| 2026-05-08 16:38 | 33.96476 | 25.17357 | 38140 ft | 458 kts | 321° |
| 2026-05-08 16:39 | 34.01755 | 25.13071 | 38138 ft | 456 kts | 318° |
| 2026-05-08 16:39 | 34.06786 | 25.08459 | 38144 ft | 455 kts | 316° |
| 2026-05-08 16:40 | 34.11808 | 25.03793 | 38139 ft | 454 kts | 317° |
| 2026-05-08 16:40 | 34.16829 | 24.99149 | 38140 ft | 454 kts | 317° |
| 2026-05-08 16:41 | 34.21832 | 24.94529 | 38148 ft | 454 kts | 317° |
| 2026-05-08 16:42 | 34.29298 | 24.87634 | 38139 ft | 451 kts | 317° |
| 2026-05-08 16:42 | 34.34289 | 24.83013 | 38141 ft | 452 kts | 317° |
| 2026-05-08 16:43 | 34.39262 | 24.78403 | 38144 ft | 452 kts | 317° |
| 2026-05-08 16:43 | 34.44236 | 24.73785 | 38135 ft | 451 kts | 316° |
| 2026-05-08 16:44 | 34.49234 | 24.69137 | 38137 ft | 451 kts | 317° |
| 2026-05-08 16:44 | 34.54179 | 24.64532 | 38138 ft | 451 kts | 316° |
| 2026-05-08 16:45 | 34.59139 | 24.59908 | 38134 ft | 448 kts | 316° |
| 2026-05-08 16:45 | 34.64104 | 24.55270 | 38130 ft | 449 kts | 316° |
| 2026-05-08 16:46 | 34.69050 | 24.50645 | 38132 ft | 450 kts | 316° |
| 2026-05-08 16:46 | 34.73999 | 24.46011 | 38131 ft | 449 kts | 316° |
| 2026-05-08 16:47 | 34.78944 | 24.41374 | 38127 ft | 450 kts | 316° |
| 2026-05-08 16:47 | 34.83908 | 24.36711 | 38127 ft | 449 kts | 316° |
| 2026-05-08 16:48 | 34.88839 | 24.32074 | 38128 ft | 451 kts | 316° |
| 2026-05-08 16:48 | 34.93775 | 24.27428 | 38125 ft | 448 kts | 316° |
| 2026-05-08 16:49 | 34.98699 | 24.22786 | 38122 ft | 448 kts | 316° |
| 2026-05-08 16:49 | 35.03643 | 24.18121 | 38115 ft | 449 kts | 316° |
| 2026-05-08 16:50 | 35.08572 | 24.13467 | 38128 ft | 450 kts | 316° |
| 2026-05-08 16:50 | 35.13545 | 24.08769 | 38146 ft | 451 kts | 316° |
| 2026-05-08 16:51 | 35.18511 | 24.04076 | 38162 ft | 451 kts | 316° |
| 2026-05-08 16:51 | 35.23454 | 23.99407 | 38188 ft | 450 kts | 316° |
| 2026-05-08 16:52 | 35.28402 | 23.94736 | 38180 ft | 451 kts | 316° |
| 2026-05-08 16:52 | 35.33368 | 23.90056 | 38136 ft | 451 kts | 316° |
| 2026-05-08 16:53 | 35.40844 | 23.83002 | 38105 ft | 451 kts | 316° |
| 2026-05-08 16:53 | 35.45786 | 23.78296 | 38099 ft | 451 kts | 316° |
| 2026-05-08 16:54 | 35.50734 | 23.73562 | 38095 ft | 453 kts | 316° |
| 2026-05-08 16:54 | 35.55718 | 23.68783 | 38087 ft | 453 kts | 316° |
| 2026-05-08 16:55 | 35.60661 | 23.64036 | 38082 ft | 452 kts | 316° |
| 2026-05-08 16:55 | 35.65621 | 23.59263 | 38075 ft | 453 kts | 316° |
| 2026-05-08 16:56 | 35.70591 | 23.54471 | 38077 ft | 456 kts | 316° |
| 2026-05-08 16:56 | 35.75599 | 23.49637 | 38074 ft | 454 kts | 317° |
| 2026-05-08 16:57 | 35.80549 | 23.44850 | 38069 ft | 454 kts | 316° |
| 2026-05-08 16:57 | 35.85540 | 23.40014 | 38074 ft | 455 kts | 316° |
| 2026-05-08 16:58 | 35.90521 | 23.35180 | 38079 ft | 456 kts | 316° |
| 2026-05-08 16:58 | 35.95530 | 23.30309 | 38073 ft | 456 kts | 316° |
| 2026-05-08 16:59 | 36.00518 | 23.25453 | 38072 ft | 456 kts | 316° |
| 2026-05-08 16:59 | 36.05505 | 23.20588 | 38066 ft | 456 kts | 316° |
| 2026-05-08 17:00 | 36.10483 | 23.15723 | 38075 ft | 456 kts | 316° |
| 2026-05-08 17:00 | 36.15468 | 23.10845 | 38073 ft | 457 kts | 316° |
| 2026-05-08 17:01 | 36.20442 | 23.05969 | 38080 ft | 457 kts | 316° |
| 2026-05-08 17:01 | 36.25428 | 23.01071 | 38079 ft | 458 kts | 316° |
| 2026-05-08 17:02 | 36.30425 | 22.96156 | 38077 ft | 457 kts | 316° |
| 2026-05-08 17:02 | 36.35384 | 22.91268 | 38080 ft | 458 kts | 317° |
| 2026-05-08 17:03 | 36.40378 | 22.86339 | 38070 ft | 457 kts | 316° |
| 2026-05-08 17:03 | 36.45338 | 22.81436 | 38071 ft | 457 kts | 316° |
| 2026-05-08 17:04 | 36.50319 | 22.76503 | 38077 ft | 458 kts | 317° |
| 2026-05-08 17:04 | 36.55290 | 22.71571 | 38072 ft | 458 kts | 317° |
| 2026-05-08 17:05 | 36.60237 | 22.66655 | 38073 ft | 457 kts | 316° |
| 2026-05-08 17:05 | 36.65201 | 22.61714 | 38075 ft | 457 kts | 317° |
| 2026-05-08 17:06 | 36.70142 | 22.56786 | 38079 ft | 457 kts | 317° |
| 2026-05-08 17:06 | 36.75096 | 22.51837 | 38077 ft | 457 kts | 317° |
| 2026-05-08 17:07 | 36.80039 | 22.46892 | 38088 ft | 456 kts | 317° |
| 2026-05-08 17:07 | 36.84971 | 22.41945 | 38083 ft | 456 kts | 316° |
| 2026-05-08 17:08 | 36.89922 | 22.36971 | 38089 ft | 457 kts | 316° |
| 2026-05-08 17:08 | 36.94841 | 22.32019 | 38097 ft | 456 kts | 316° |
| 2026-05-08 17:09 | 36.99771 | 22.27042 | 38112 ft | 455 kts | 316° |
| 2026-05-08 17:09 | 37.04699 | 22.22055 | 38122 ft | 455 kts | 316° |
| 2026-05-08 17:10 | 37.09588 | 22.17090 | 38110 ft | 454 kts | 316° |
| 2026-05-08 17:10 | 37.14484 | 22.12103 | 38096 ft | 454 kts | 316° |
| 2026-05-08 17:11 | 37.19366 | 22.07117 | 38099 ft | 453 kts | 316° |
| 2026-05-08 17:11 | 37.24265 | 22.02104 | 38088 ft | 451 kts | 316° |
| 2026-05-08 17:12 | 37.29109 | 21.97137 | 38085 ft | 453 kts | 316° |
| 2026-05-08 17:12 | 37.33975 | 21.92140 | 38104 ft | 452 kts | 316° |
| 2026-05-08 17:13 | 37.38806 | 21.87173 | 38109 ft | 449 kts | 316° |
| 2026-05-08 17:13 | 37.43620 | 21.82213 | 38118 ft | 450 kts | 316° |
| 2026-05-08 17:14 | 37.48469 | 21.77210 | 38141 ft | 448 kts | 316° |
| 2026-05-08 17:14 | 37.53274 | 21.72246 | 38153 ft | 448 kts | 316° |
| 2026-05-08 17:15 | 37.58091 | 21.67262 | 38125 ft | 447 kts | 316° |
| 2026-05-08 17:15 | 37.62872 | 21.62306 | 38117 ft | 447 kts | 316° |
| 2026-05-08 17:16 | 37.67670 | 21.57324 | 38109 ft | 446 kts | 316° |
| 2026-05-08 17:16 | 37.72446 | 21.52358 | 38100 ft | 446 kts | 316° |
| 2026-05-08 17:17 | 37.77216 | 21.47392 | 38088 ft | 444 kts | 316° |
| 2026-05-08 17:17 | 37.81962 | 21.42441 | 38078 ft | 443 kts | 316° |
| 2026-05-08 17:18 | 37.86715 | 21.37476 | 38060 ft | 443 kts | 316° |
| 2026-05-08 17:18 | 37.91463 | 21.32506 | 38071 ft | 442 kts | 315° |
| 2026-05-08 17:19 | 37.96202 | 21.27537 | 38060 ft | 442 kts | 315° |
| 2026-05-08 17:19 | 38.00930 | 21.22574 | 38037 ft | 442 kts | 315° |
| 2026-05-08 17:20 | 38.05642 | 21.17621 | 38074 ft | 441 kts | 315° |
| 2026-05-08 17:20 | 38.10352 | 21.12663 | 38032 ft | 440 kts | 315° |
| 2026-05-08 17:21 | 38.15086 | 21.07671 | 38053 ft | 440 kts | 315° |
| 2026-05-08 17:21 | 38.19764 | 21.02729 | 38060 ft | 442 kts | 315° |
| 2026-05-08 17:22 | 38.24504 | 20.97713 | 38067 ft | 440 kts | 315° |
| 2026-05-08 17:22 | 38.29179 | 20.92759 | 38155 ft | 440 kts | 315° |
| 2026-05-08 17:23 | 38.31524 | 20.90271 | 38020 ft | 440 kts | 315° |
| 2026-05-08 17:23 | 38.33888 | 20.87760 | 38046 ft | 442 kts | 315° |
| 2026-05-08 17:23 | 38.38615 | 20.82730 | 38034 ft | 444 kts | 315° |
| 2026-05-08 17:24 | 38.43309 | 20.77731 | 38047 ft | 443 kts | 315° |
| 2026-05-08 17:24 | 38.48024 | 20.72700 | 38048 ft | 442 kts | 315° |
| 2026-05-08 17:25 | 38.52742 | 20.67662 | 38049 ft | 443 kts | 315° |
| 2026-05-08 17:25 | 38.57464 | 20.62626 | 38041 ft | 442 kts | 315° |
| 2026-05-08 17:26 | 38.62152 | 20.57605 | 38037 ft | 442 kts | 315° |
| 2026-05-08 17:26 | 38.66857 | 20.52550 | 38037 ft | 442 kts | 315° |
| 2026-05-08 17:27 | 38.71565 | 20.47477 | 38032 ft | 442 kts | 315° |
| 2026-05-08 17:27 | 38.76247 | 20.42422 | 38032 ft | 442 kts | 315° |
| 2026-05-08 17:28 | 38.80997 | 20.37434 | 38029 ft | 443 kts | 317° |
| 2026-05-08 17:28 | 38.85825 | 20.32494 | 38034 ft | 442 kts | 316° |
| 2026-05-08 17:29 | 38.90561 | 20.27492 | 38024 ft | 442 kts | 315° |
| 2026-05-08 17:29 | 38.95258 | 20.22433 | 38025 ft | 443 kts | 315° |
| 2026-05-08 17:30 | 38.99955 | 20.17335 | 38025 ft | 443 kts | 315° |
| 2026-05-08 17:30 | 39.04640 | 20.12234 | 38022 ft | 442 kts | 315° |
| 2026-05-08 17:31 | 39.09295 | 20.07157 | 38018 ft | 442 kts | 315° |
| 2026-05-08 17:31 | 39.14001 | 20.02014 | 38022 ft | 442 kts | 315° |
| 2026-05-08 17:32 | 39.18678 | 19.96892 | 38029 ft | 443 kts | 315° |
| 2026-05-08 17:32 | 39.23357 | 19.91762 | 38015 ft | 444 kts | 315° |
| 2026-05-08 17:33 | 39.28051 | 19.86606 | 38012 ft | 443 kts | 315° |
| 2026-05-08 17:33 | 39.32701 | 19.81490 | 38010 ft | 442 kts | 315° |
| 2026-05-08 17:34 | 39.37384 | 19.76330 | 38019 ft | 442 kts | 315° |
| 2026-05-08 17:34 | 39.42050 | 19.71187 | 38007 ft | 442 kts | 315° |
| 2026-05-08 17:35 | 39.46719 | 19.66034 | 38012 ft | 443 kts | 315° |
| 2026-05-08 17:35 | 39.51413 | 19.60847 | 38007 ft | 444 kts | 315° |
| 2026-05-08 17:36 | 39.56084 | 19.55666 | 38014 ft | 443 kts | 315° |
| 2026-05-08 17:36 | 39.60773 | 19.50446 | 38012 ft | 442 kts | 315° |
| 2026-05-08 17:37 | 39.65427 | 19.45248 | 38010 ft | 443 kts | 315° |
| 2026-05-08 17:37 | 39.70083 | 19.40038 | 38004 ft | 444 kts | 315° |
| 2026-05-08 17:38 | 39.74754 | 19.34806 | 38017 ft | 443 kts | 315° |
| 2026-05-08 17:38 | 39.79405 | 19.29589 | 38010 ft | 443 kts | 315° |
| 2026-05-08 17:39 | 39.84047 | 19.24375 | 37995 ft | 442 kts | 315° |
| 2026-05-08 17:39 | 39.88711 | 19.19126 | 38004 ft | 443 kts | 315° |
| 2026-05-08 17:40 | 39.93320 | 19.13931 | 38274 ft | 440 kts | 315° |
| 2026-05-08 17:40 | 39.95644 | 19.11308 | 38458 ft | 440 kts | 315° |
| 2026-05-08 17:40 | 39.97954 | 19.08697 | 38640 ft | 440 kts | 314° |
| 2026-05-08 17:41 | 40.00269 | 19.06079 | 38827 ft | 441 kts | 315° |
| 2026-05-08 17:41 | 40.02557 | 19.03487 | 39006 ft | 440 kts | 314° |
| 2026-05-08 17:41 | 40.04855 | 19.00878 | 39166 ft | 440 kts | 314° |
| 2026-05-08 17:41 | 40.07044 | 18.98061 | 39367 ft | 436 kts | 309° |
| 2026-05-08 17:42 | 40.09071 | 18.95157 | 39514 ft | 435 kts | 308° |
| 2026-05-08 17:42 | 40.11058 | 18.92209 | 39706 ft | 434 kts | 308° |
| 2026-05-08 17:42 | 40.13031 | 18.89262 | 39844 ft | 434 kts | 308° |
| 2026-05-08 17:42 | 40.15044 | 18.86262 | 39955 ft | 435 kts | 308° |
| 2026-05-08 17:43 | 40.19038 | 18.80340 | 39983 ft | 440 kts | 308° |
| 2026-05-08 17:43 | 40.23103 | 18.74329 | 39972 ft | 443 kts | 308° |
| 2026-05-08 17:44 | 40.27203 | 18.68267 | 39979 ft | 445 kts | 308° |
| 2026-05-08 17:44 | 40.31290 | 18.62215 | 39984 ft | 446 kts | 308° |
| 2026-05-08 17:45 | 40.35400 | 18.56115 | 39987 ft | 446 kts | 308° |
| 2026-05-08 17:45 | 40.39514 | 18.49998 | 39981 ft | 447 kts | 308° |
| 2026-05-08 17:46 | 40.43618 | 18.43884 | 39973 ft | 447 kts | 308° |
| 2026-05-08 17:46 | 40.47704 | 18.37784 | 39986 ft | 448 kts | 308° |
| 2026-05-08 17:47 | 40.51821 | 18.31623 | 39972 ft | 448 kts | 308° |
| 2026-05-08 17:47 | 40.55239 | 18.26500 | 39969 ft | 448 kts | 308° |
| 2026-05-08 17:48 | 40.60033 | 18.19301 | 39946 ft | 448 kts | 308° |
| 2026-05-08 17:48 | 40.64125 | 18.13143 | 39950 ft | 448 kts | 308° |
| 2026-05-08 17:49 | 40.68198 | 18.07000 | 39975 ft | 449 kts | 308° |
| 2026-05-08 17:49 | 40.72291 | 18.00815 | 39965 ft | 448 kts | 308° |
| 2026-05-08 17:50 | 40.76377 | 17.94628 | 39970 ft | 448 kts | 308° |
| 2026-05-08 17:50 | 40.80473 | 17.88411 | 39969 ft | 449 kts | 308° |
| 2026-05-08 17:51 | 40.84529 | 17.82245 | 39969 ft | 448 kts | 308° |
| 2026-05-08 17:51 | 40.88609 | 17.76029 | 39961 ft | 449 kts | 308° |
| 2026-05-08 17:52 | 40.92685 | 17.69805 | 39960 ft | 449 kts | 308° |
| 2026-05-08 17:53 | 40.98816 | 17.60422 | 39961 ft | 450 kts | 308° |
| 2026-05-08 17:53 | 41.02902 | 17.54151 | 39983 ft | 450 kts | 308° |
| 2026-05-08 17:54 | 41.06966 | 17.47902 | 40008 ft | 450 kts | 308° |
| 2026-05-08 17:54 | 41.11046 | 17.41614 | 39997 ft | 450 kts | 308° |
| 2026-05-08 17:55 | 41.15103 | 17.35349 | 39997 ft | 450 kts | 308° |
| 2026-05-08 17:55 | 41.19182 | 17.29037 | 40003 ft | 450 kts | 307° |
| 2026-05-08 17:56 | 41.23248 | 17.22731 | 40015 ft | 450 kts | 307° |
| 2026-05-08 17:56 | 41.27285 | 17.16456 | 40034 ft | 450 kts | 307° |
| 2026-05-08 17:57 | 41.31332 | 17.10149 | 40021 ft | 449 kts | 307° |
| 2026-05-08 17:57 | 41.35378 | 17.03834 | 40031 ft | 449 kts | 307° |
| 2026-05-08 17:58 | 41.39402 | 16.97537 | 40011 ft | 448 kts | 307° |
| 2026-05-08 17:58 | 41.43436 | 16.91212 | 40030 ft | 449 kts | 307° |
| 2026-05-08 17:59 | 41.47463 | 16.84883 | 40038 ft | 449 kts | 307° |
| 2026-05-08 17:59 | 41.51490 | 16.78543 | 40031 ft | 450 kts | 307° |
| 2026-05-08 18:00 | 41.55512 | 16.72195 | 40035 ft | 450 kts | 307° |
| 2026-05-08 18:00 | 41.61577 | 16.62600 | 40041 ft | 450 kts | 307° |
| 2026-05-08 18:01 | 41.65584 | 16.56243 | 40031 ft | 450 kts | 307° |
| 2026-05-08 18:01 | 41.69607 | 16.49847 | 40042 ft | 450 kts | 307° |
| 2026-05-08 18:02 | 41.72933 | 16.44549 | 40039 ft | 450 kts | 307° |
| 2026-05-08 18:02 | 41.77618 | 16.37070 | 40035 ft | 450 kts | 307° |
| 2026-05-08 18:03 | 41.81654 | 16.30614 | 40044 ft | 451 kts | 306° |
| 2026-05-08 18:03 | 41.85675 | 16.24165 | 40040 ft | 451 kts | 306° |
| 2026-05-08 18:04 | 41.89661 | 16.17760 | 40036 ft | 451 kts | 306° |
| 2026-05-08 18:04 | 41.93678 | 16.11291 | 40028 ft | 452 kts | 306° |
| 2026-05-08 18:05 | 41.97691 | 16.04815 | 40029 ft | 452 kts | 306° |
| 2026-05-08 18:05 | 42.01714 | 15.98310 | 40013 ft | 452 kts | 306° |
| 2026-05-08 18:06 | 42.05723 | 15.91812 | 40033 ft | 452 kts | 306° |
| 2026-05-08 18:06 | 42.09717 | 15.85323 | 40022 ft | 452 kts | 306° |
| 2026-05-08 18:07 | 42.13740 | 15.78773 | 40029 ft | 452 kts | 306° |
| 2026-05-08 18:07 | 42.17761 | 15.72213 | 40012 ft | 453 kts | 306° |
| 2026-05-08 18:08 | 42.21760 | 15.65675 | 40024 ft | 453 kts | 306° |
| 2026-05-08 18:08 | 42.25756 | 15.59128 | 40036 ft | 453 kts | 306° |
| 2026-05-08 18:09 | 42.29753 | 15.52565 | 40023 ft | 453 kts | 306° |
| 2026-05-08 18:09 | 42.33757 | 15.45974 | 40031 ft | 453 kts | 306° |
| 2026-05-08 18:10 | 42.37741 | 15.39403 | 40021 ft | 453 kts | 306° |
| 2026-05-08 18:10 | 42.41730 | 15.32809 | 40025 ft | 453 kts | 306° |
| 2026-05-08 18:11 | 42.45684 | 15.26257 | 40038 ft | 453 kts | 306° |
| 2026-05-08 18:11 | 42.49686 | 15.19612 | 40029 ft | 454 kts | 306° |
| 2026-05-08 18:12 | 42.53641 | 15.13030 | 40040 ft | 454 kts | 306° |
| 2026-05-08 18:12 | 42.57624 | 15.06388 | 40037 ft | 454 kts | 305° |
| 2026-05-08 18:13 | 42.61594 | 14.99751 | 40043 ft | 455 kts | 306° |
| 2026-05-08 18:13 | 42.65575 | 14.93082 | 40015 ft | 456 kts | 306° |
| 2026-05-08 18:14 | 42.69593 | 14.86456 | 40032 ft | 457 kts | 307° |
| 2026-05-08 18:14 | 42.73817 | 14.79931 | 40029 ft | 458 kts | 308° |
| 2026-05-08 18:15 | 42.78046 | 14.73441 | 40036 ft | 459 kts | 308° |
| 2026-05-08 18:15 | 42.82247 | 14.66953 | 40033 ft | 460 kts | 308° |
| 2026-05-08 18:16 | 42.86469 | 14.60405 | 40033 ft | 460 kts | 307° |
| 2026-05-08 18:16 | 42.90692 | 14.53836 | 40027 ft | 461 kts | 308° |
| 2026-05-08 18:17 | 42.94896 | 14.47281 | 40055 ft | 461 kts | 308° |
| 2026-05-08 18:17 | 42.99138 | 14.40653 | 40038 ft | 462 kts | 308° |
| 2026-05-08 18:18 | 43.03331 | 14.34085 | 40050 ft | 463 kts | 307° |
| 2026-05-08 18:18 | 43.07583 | 14.27410 | 40029 ft | 464 kts | 307° |
| 2026-05-08 18:19 | 43.11819 | 14.20745 | 40041 ft | 465 kts | 307° |
| 2026-05-08 18:19 | 43.16008 | 14.14098 | 40044 ft | 463 kts | 305° |
| 2026-05-08 18:20 | 43.19698 | 14.06875 | 40021 ft | 461 kts | 300° |
| 2026-05-08 18:20 | 43.23114 | 13.99536 | 40021 ft | 460 kts | 299° |
| 2026-05-08 18:21 | 43.26551 | 13.92164 | 40048 ft | 461 kts | 300° |
| 2026-05-08 18:21 | 43.30022 | 13.84770 | 40002 ft | 462 kts | 300° |
| 2026-05-08 18:22 | 43.33507 | 13.77350 | 40024 ft | 463 kts | 300° |
| 2026-05-08 18:22 | 43.36978 | 13.69947 | 40035 ft | 463 kts | 300° |
| 2026-05-08 18:23 | 43.40435 | 13.62557 | 40040 ft | 463 kts | 300° |
| 2026-05-08 18:23 | 43.43895 | 13.55141 | 40048 ft | 463 kts | 300° |
| 2026-05-08 18:24 | 43.47358 | 13.47701 | 40034 ft | 464 kts | 300° |
| 2026-05-08 18:24 | 43.50831 | 13.40221 | 40040 ft | 464 kts | 300° |
| 2026-05-08 18:25 | 43.54309 | 13.32708 | 40045 ft | 465 kts | 299° |
| 2026-05-08 18:25 | 43.57761 | 13.25233 | 40047 ft | 466 kts | 299° |
| 2026-05-08 18:26 | 43.61241 | 13.17679 | 40020 ft | 466 kts | 299° |
| 2026-05-08 18:26 | 43.64693 | 13.10166 | 40043 ft | 467 kts | 300° |
| 2026-05-08 18:27 | 43.67585 | 13.03858 | 40030 ft | 467 kts | 300° |
| 2026-05-08 18:27 | 43.71612 | 12.95051 | 40032 ft | 467 kts | 299° |
| 2026-05-08 18:28 | 43.75073 | 12.87461 | 40046 ft | 467 kts | 299° |
| 2026-05-08 18:28 | 43.78522 | 12.79875 | 40037 ft | 467 kts | 299° |
| 2026-05-08 18:29 | 43.81963 | 12.72289 | 40035 ft | 467 kts | 299° |
| 2026-05-08 18:29 | 43.85384 | 12.64727 | 40035 ft | 468 kts | 299° |
| 2026-05-08 18:30 | 43.88826 | 12.57097 | 40049 ft | 468 kts | 299° |
| 2026-05-08 18:30 | 43.92263 | 12.49460 | 40034 ft | 467 kts | 299° |
| 2026-05-08 18:31 | 43.95689 | 12.41828 | 40046 ft | 467 kts | 299° |
| 2026-05-08 18:31 | 43.99097 | 12.34215 | 40030 ft | 467 kts | 299° |
| 2026-05-08 18:32 | 44.02505 | 12.26582 | 40048 ft | 467 kts | 298° |
| 2026-05-08 18:32 | 44.05911 | 12.18935 | 40031 ft | 468 kts | 299° |
| 2026-05-08 18:33 | 44.09325 | 12.11248 | 40060 ft | 469 kts | 299° |
| 2026-05-08 18:33 | 44.12746 | 12.03524 | 40046 ft | 469 kts | 299° |
| 2026-05-08 18:34 | 44.16170 | 11.95773 | 40058 ft | 469 kts | 299° |
| 2026-05-08 18:34 | 44.19592 | 11.88008 | 40035 ft | 469 kts | 299° |
| 2026-05-08 18:35 | 44.23003 | 11.80249 | 40052 ft | 469 kts | 299° |
| 2026-05-08 18:35 | 44.26396 | 11.72504 | 40056 ft | 469 kts | 298° |
| 2026-05-08 18:36 | 44.29802 | 11.64712 | 40047 ft | 469 kts | 299° |
| 2026-05-08 18:36 | 44.33194 | 11.56930 | 40042 ft | 470 kts | 299° |
| 2026-05-08 18:37 | 44.36568 | 11.49166 | 40050 ft | 470 kts | 299° |
| 2026-05-08 18:37 | 44.39970 | 11.41318 | 40045 ft | 471 kts | 299° |
| 2026-05-08 18:38 | 44.43366 | 11.33467 | 40040 ft | 470 kts | 298° |
| 2026-05-08 18:38 | 44.46696 | 11.25747 | 40038 ft | 462 kts | 298° |
| 2026-05-08 18:39 | 44.50020 | 11.18018 | 40035 ft | 461 kts | 298° |
| 2026-05-08 18:39 | 44.53317 | 11.10327 | 40044 ft | 462 kts | 298° |
| 2026-05-08 18:40 | 44.56626 | 11.02591 | 40040 ft | 461 kts | 298° |
| 2026-05-08 18:40 | 44.59930 | 10.94844 | 40032 ft | 462 kts | 298° |
| 2026-05-08 18:41 | 44.63218 | 10.87116 | 40040 ft | 462 kts | 298° |
| 2026-05-08 18:41 | 44.66506 | 10.79363 | 40051 ft | 463 kts | 298° |
| 2026-05-08 18:42 | 44.69785 | 10.71614 | 40029 ft | 462 kts | 298° |
| 2026-05-08 18:42 | 44.73031 | 10.63925 | 40034 ft | 456 kts | 298° |
| 2026-05-08 18:43 | 44.76260 | 10.56251 | 40041 ft | 454 kts | 298° |
| 2026-05-08 18:43 | 44.79476 | 10.48587 | 40039 ft | 456 kts | 298° |
| 2026-05-08 18:44 | 44.82691 | 10.40906 | 40028 ft | 455 kts | 298° |
| 2026-05-08 18:44 | 44.85889 | 10.33241 | 40040 ft | 455 kts | 298° |
| 2026-05-08 18:45 | 44.89087 | 10.25561 | 40043 ft | 455 kts | 298° |
| 2026-05-08 18:45 | 44.92284 | 10.17862 | 40033 ft | 453 kts | 298° |
| 2026-05-08 18:46 | 44.95454 | 10.10206 | 40043 ft | 453 kts | 298° |
| 2026-05-08 18:46 | 44.98640 | 10.02486 | 40042 ft | 457 kts | 297° |
| 2026-05-08 18:47 | 45.01837 | 9.94722 | 40035 ft | 455 kts | 298° |
| 2026-05-08 18:47 | 45.05021 | 9.86971 | 40058 ft | 456 kts | 298° |
| 2026-05-08 18:48 | 45.08175 | 9.79268 | 40045 ft | 455 kts | 298° |
| 2026-05-08 18:48 | 45.11327 | 9.71549 | 40056 ft | 456 kts | 298° |
| 2026-05-08 18:49 | 45.14423 | 9.63644 | 40063 ft | 455 kts | 296° |
| 2026-05-08 18:49 | 45.17423 | 9.55790 | 40037 ft | 455 kts | 297° |
| 2026-05-08 18:50 | 45.20524 | 9.48010 | 40046 ft | 456 kts | 298° |
| 2026-05-08 18:50 | 45.23672 | 9.40208 | 40061 ft | 456 kts | 298° |
| 2026-05-08 18:51 | 45.26820 | 9.32407 | 40060 ft | 456 kts | 297° |
| 2026-05-08 18:51 | 45.29973 | 9.24575 | 40060 ft | 454 kts | 297° |
| 2026-05-08 18:52 | 45.33103 | 9.16775 | 40042 ft | 456 kts | 297° |
| 2026-05-08 18:52 | 45.36227 | 9.08968 | 40045 ft | 457 kts | 297° |
| 2026-05-08 18:53 | 45.39373 | 9.01105 | 40065 ft | 457 kts | 297° |
| 2026-05-08 18:53 | 45.42510 | 8.93264 | 40051 ft | 455 kts | 297° |
| 2026-05-08 18:54 | 45.45618 | 8.85479 | 40054 ft | 456 kts | 297° |
| 2026-05-08 18:54 | 45.48743 | 8.77622 | 40041 ft | 459 kts | 297° |
| 2026-05-08 18:55 | 45.53447 | 8.65752 | 40062 ft | 457 kts | 297° |
| 2026-05-08 18:56 | 45.56553 | 8.57877 | 40058 ft | 457 kts | 297° |
| 2026-05-08 18:56 | 45.59665 | 8.49957 | 40062 ft | 459 kts | 297° |
| 2026-05-08 18:57 | 45.62770 | 8.42032 | 40056 ft | 458 kts | 297° |
| 2026-05-08 18:57 | 45.65895 | 8.34032 | 40067 ft | 459 kts | 297° |
| 2026-05-08 18:58 | 45.68996 | 8.26066 | 40081 ft | 459 kts | 296° |
| 2026-05-08 18:58 | 45.72091 | 8.18101 | 40119 ft | 458 kts | 297° |
| 2026-05-08 18:59 | 45.75201 | 8.10091 | 40145 ft | 460 kts | 297° |
| 2026-05-08 18:59 | 45.78310 | 8.02091 | 40171 ft | 461 kts | 297° |
| 2026-05-08 19:00 | 45.81439 | 7.94069 | 40159 ft | 459 kts | 297° |
| 2026-05-08 19:00 | 45.84555 | 7.86134 | 40163 ft | 458 kts | 297° |
| 2026-05-08 19:01 | 45.87706 | 7.78180 | 40150 ft | 461 kts | 297° |
| 2026-05-08 19:01 | 45.90883 | 7.70202 | 40140 ft | 463 kts | 298° |
| 2026-05-08 19:02 | 45.94069 | 7.62175 | 40134 ft | 460 kts | 297° |
| 2026-05-08 19:02 | 45.97252 | 7.54232 | 40130 ft | 461 kts | 302° |
| 2026-05-08 19:03 | 46.01171 | 7.46857 | 40131 ft | 464 kts | 307° |
| 2026-05-08 19:03 | 46.05251 | 7.39697 | 40139 ft | 464 kts | 307° |
| 2026-05-08 19:04 | 46.09317 | 7.32439 | 40133 ft | 466 kts | 306° |
| 2026-05-08 19:04 | 46.13354 | 7.25129 | 40135 ft | 464 kts | 306° |
| 2026-05-08 19:05 | 46.17343 | 7.17863 | 40130 ft | 463 kts | 306° |
| 2026-05-08 19:05 | 46.21340 | 7.10558 | 40132 ft | 463 kts | 306° |
| 2026-05-08 19:06 | 46.25311 | 7.03280 | 40122 ft | 465 kts | 306° |
| 2026-05-08 19:06 | 46.29316 | 6.95922 | 40116 ft | 465 kts | 306° |
| 2026-05-08 19:07 | 46.33295 | 6.88594 | 40125 ft | 463 kts | 306° |
| 2026-05-08 19:07 | 46.37259 | 6.81273 | 40130 ft | 462 kts | 306° |
| 2026-05-08 19:08 | 46.41196 | 6.73981 | 40120 ft | 462 kts | 306° |
| 2026-05-08 19:08 | 46.45023 | 6.66589 | 40100 ft | 459 kts | 301° |
| 2026-05-08 19:09 | 46.48246 | 6.58639 | 40086 ft | 459 kts | 297° |
| 2026-05-08 19:09 | 46.51361 | 6.50532 | 40079 ft | 460 kts | 298° |
| 2026-05-08 19:10 | 46.54487 | 6.42476 | 40057 ft | 459 kts | 298° |
| 2026-05-08 19:10 | 46.57618 | 6.34457 | 40052 ft | 458 kts | 298° |
| 2026-05-08 19:11 | 46.60762 | 6.26404 | 40081 ft | 458 kts | 297° |
| 2026-05-08 19:11 | 46.63881 | 6.18395 | 40069 ft | 459 kts | 297° |
| 2026-05-08 19:12 | 46.67016 | 6.10323 | 40075 ft | 458 kts | 297° |
| 2026-05-08 19:12 | 46.70143 | 6.02241 | 40042 ft | 455 kts | 298° |
| 2026-05-08 19:13 | 46.73220 | 5.94267 | 40046 ft | 451 kts | 298° |
| 2026-05-08 19:13 | 46.76940 | 5.86977 | 40039 ft | 458 kts | 316° |
| 2026-05-08 19:14 | 46.82281 | 5.81769 | 40035 ft | 463 kts | 322° |
| 2026-05-08 19:14 | 46.87185 | 5.75859 | 40034 ft | 460 kts | 316° |
| 2026-05-08 19:15 | 46.92030 | 5.69752 | 40035 ft | 460 kts | 317° |
| 2026-05-08 19:15 | 46.96948 | 5.63829 | 40020 ft | 460 kts | 319° |
| 2026-05-08 19:16 | 47.01929 | 5.57957 | 40025 ft | 460 kts | 319° |
| 2026-05-08 19:16 | 47.06902 | 5.52111 | 40018 ft | 462 kts | 319° |
| 2026-05-08 19:17 | 47.11918 | 5.46193 | 40024 ft | 460 kts | 319° |
| 2026-05-08 19:17 | 47.16856 | 5.40341 | 40023 ft | 459 kts | 319° |
| 2026-05-08 19:18 | 47.21828 | 5.34430 | 40024 ft | 460 kts | 318° |
| 2026-05-08 19:18 | 47.26768 | 5.28521 | 40025 ft | 456 kts | 317° |
| 2026-05-08 19:19 | 47.31635 | 5.22613 | 40024 ft | 450 kts | 317° |
| 2026-05-08 19:19 | 47.36486 | 5.16755 | 39829 ft | 452 kts | 317° |
| 2026-05-08 19:19 | 47.38900 | 5.13852 | 39530 ft | 457 kts | 317° |
| 2026-05-08 19:20 | 47.41388 | 5.10871 | 39136 ft | 458 kts | 318° |
| 2026-05-08 19:20 | 47.43005 | 5.08947 | 38902 ft | 454 kts | 318° |
| 2026-05-08 19:20 | 47.46263 | 5.05092 | 38392 ft | 442 kts | 318° |
| 2026-05-08 19:20 | 47.48623 | 5.02301 | 37988 ft | 432 kts | 318° |
| 2026-05-08 19:21 | 47.50907 | 4.99580 | 37575 ft | 425 kts | 318° |
| 2026-05-08 19:21 | 47.53206 | 4.96820 | 37096 ft | 420 kts | 317° |
| 2026-05-08 19:21 | 47.55442 | 4.94117 | 36612 ft | 418 kts | 317° |
| 2026-05-08 19:21 | 47.57669 | 4.91430 | 36189 ft | 417 kts | 318° |
| 2026-05-08 19:22 | 47.59927 | 4.88719 | 35829 ft | 413 kts | 318° |
| 2026-05-08 19:22 | 47.62133 | 4.86069 | 35461 ft | 407 kts | 318° |
| 2026-05-08 19:22 | 47.64299 | 4.83459 | 35099 ft | 401 kts | 317° |
| 2026-05-08 19:22 | 47.66434 | 4.80875 | 34728 ft | 397 kts | 317° |
| 2026-05-08 19:23 | 47.68553 | 4.78306 | 34346 ft | 393 kts | 317° |
| 2026-05-08 19:23 | 47.70663 | 4.75741 | 33910 ft | 390 kts | 318° |
| 2026-05-08 19:23 | 47.72763 | 4.73183 | 33476 ft | 389 kts | 318° |
| 2026-05-08 19:23 | 47.74825 | 4.70670 | 33047 ft | 385 kts | 318° |
| 2026-05-08 19:24 | 47.76882 | 4.68159 | 32614 ft | 380 kts | 318° |
| 2026-05-08 19:24 | 47.78906 | 4.65687 | 32184 ft | 377 kts | 318° |
| 2026-05-08 19:24 | 47.80913 | 4.63232 | 31757 ft | 376 kts | 318° |
| 2026-05-08 19:24 | 47.82910 | 4.60787 | 31330 ft | 374 kts | 319° |
| 2026-05-08 19:25 | 47.84896 | 4.58355 | 30904 ft | 370 kts | 319° |
| 2026-05-08 19:25 | 47.86870 | 4.55934 | 30480 ft | 365 kts | 319° |
| 2026-05-08 19:25 | 47.88812 | 4.53550 | 30070 ft | 362 kts | 319° |
| 2026-05-08 19:25 | 47.90733 | 4.51190 | 29665 ft | 360 kts | 319° |
| 2026-05-08 19:26 | 47.92672 | 4.48806 | 29257 ft | 359 kts | 319° |
| 2026-05-08 19:26 | 47.94590 | 4.46445 | 28923 ft | 359 kts | 319° |
| 2026-05-08 19:26 | 47.96500 | 4.44090 | 28594 ft | 359 kts | 319° |
| 2026-05-08 19:26 | 47.98423 | 4.41718 | 28267 ft | 358 kts | 319° |
| 2026-05-08 19:27 | 48.00311 | 4.39388 | 27940 ft | 354 kts | 319° |
| 2026-05-08 19:27 | 48.02200 | 4.37056 | 27604 ft | 351 kts | 319° |
| 2026-05-08 19:27 | 48.04082 | 4.34726 | 27273 ft | 351 kts | 318° |
| 2026-05-08 19:27 | 48.05952 | 4.32406 | 26945 ft | 351 kts | 319° |
| 2026-05-08 19:28 | 48.07825 | 4.30084 | 26674 ft | 348 kts | 319° |
| 2026-05-08 19:28 | 48.09671 | 4.27794 | 26479 ft | 348 kts | 319° |
| 2026-05-08 19:28 | 48.11518 | 4.25500 | 26260 ft | 348 kts | 319° |
| 2026-05-08 19:28 | 48.13401 | 4.23160 | 26053 ft | 346 kts | 319° |
| 2026-05-08 19:29 | 48.15234 | 4.20879 | 25839 ft | 346 kts | 319° |
| 2026-05-08 19:29 | 48.17086 | 4.18571 | 25634 ft | 346 kts | 319° |
| 2026-05-08 19:29 | 48.18933 | 4.16268 | 25429 ft | 343 kts | 319° |
| 2026-05-08 19:29 | 48.20753 | 4.13996 | 25220 ft | 345 kts | 319° |
| 2026-05-08 19:30 | 48.22607 | 4.11679 | 25005 ft | 344 kts | 319° |
| 2026-05-08 19:30 | 48.24425 | 4.09407 | 24797 ft | 342 kts | 319° |
| 2026-05-08 19:30 | 48.26237 | 4.07140 | 24585 ft | 340 kts | 319° |
| 2026-05-08 19:30 | 48.28055 | 4.04863 | 24375 ft | 340 kts | 319° |
| 2026-05-08 19:31 | 48.29856 | 4.02604 | 24154 ft | 341 kts | 319° |
| 2026-05-08 19:31 | 48.31671 | 4.00326 | 23937 ft | 338 kts | 319° |
| 2026-05-08 19:31 | 48.33462 | 3.98074 | 23736 ft | 338 kts | 319° |
| 2026-05-08 19:31 | 48.35282 | 3.95785 | 23476 ft | 340 kts | 319° |
| 2026-05-08 19:32 | 48.37076 | 3.93528 | 23214 ft | 339 kts | 319° |
| 2026-05-08 19:32 | 48.38883 | 3.91253 | 22930 ft | 337 kts | 319° |
| 2026-05-08 19:32 | 48.40658 | 3.89014 | 22659 ft | 336 kts | 319° |
| 2026-05-08 19:32 | 48.42458 | 3.86740 | 22344 ft | 337 kts | 319° |
| 2026-05-08 19:33 | 48.44261 | 3.84461 | 21979 ft | 338 kts | 319° |
| 2026-05-08 19:33 | 48.46043 | 3.82208 | 21614 ft | 335 kts | 319° |
| 2026-05-08 19:33 | 48.47807 | 3.79967 | 21246 ft | 334 kts | 317° |
| 2026-05-08 19:33 | 48.49412 | 3.77470 | 20889 ft | 334 kts | 309° |
| 2026-05-08 19:34 | 48.50864 | 3.74739 | 20515 ft | 335 kts | 307° |
| 2026-05-08 19:34 | 48.52311 | 3.71970 | 20100 ft | 332 kts | 308° |
| 2026-05-08 19:34 | 48.53742 | 3.69282 | 19698 ft | 331 kts | 308° |
| 2026-05-08 19:34 | 48.55205 | 3.66574 | 19281 ft | 331 kts | 308° |
| 2026-05-08 19:35 | 48.56651 | 3.63918 | 18875 ft | 330 kts | 308° |
| 2026-05-08 19:35 | 48.58103 | 3.61259 | 18467 ft | 329 kts | 308° |
| 2026-05-08 19:35 | 48.59529 | 3.58604 | 18050 ft | 328 kts | 307° |
| 2026-05-08 19:35 | 48.60902 | 3.55838 | 17623 ft | 328 kts | 304° |
| 2026-05-08 19:36 | 48.62203 | 3.53045 | 17197 ft | 326 kts | 303° |
| 2026-05-08 19:36 | 48.63470 | 3.50224 | 16774 ft | 323 kts | 303° |
| 2026-05-08 19:36 | 48.64702 | 3.47424 | 16348 ft | 322 kts | 302° |
| 2026-05-08 19:36 | 48.65923 | 3.44624 | 15901 ft | 320 kts | 302° |
| 2026-05-08 19:37 | 48.67147 | 3.41815 | 15456 ft | 319 kts | 302° |
| 2026-05-08 19:37 | 48.68373 | 3.39027 | 15009 ft | 318 kts | 303° |
| 2026-05-08 19:37 | 48.69579 | 3.36280 | 14570 ft | 316 kts | 303° |
| 2026-05-08 19:37 | 48.70789 | 3.33531 | 14149 ft | 314 kts | 302° |
| 2026-05-08 19:38 | 48.71994 | 3.30803 | 13780 ft | 310 kts | 302° |
| 2026-05-08 19:38 | 48.73189 | 3.28113 | 13574 ft | 308 kts | 302° |
| 2026-05-08 19:38 | 48.74387 | 3.25410 | 13395 ft | 311 kts | 302° |
| 2026-05-08 19:38 | 48.75594 | 3.22685 | 13217 ft | 309 kts | 302° |
| 2026-05-08 19:39 | 48.76786 | 3.19993 | 13092 ft | 306 kts | 302° |
| 2026-05-08 19:39 | 48.77961 | 3.17328 | 13065 ft | 306 kts | 302° |
| 2026-05-08 19:39 | 48.79143 | 3.14641 | 13058 ft | 307 kts | 302° |
| 2026-05-08 19:39 | 48.80334 | 3.11928 | 13057 ft | 307 kts | 302° |
| 2026-05-08 19:40 | 48.81512 | 3.09247 | 13057 ft | 307 kts | 302° |
| 2026-05-08 19:40 | 48.82698 | 3.06542 | 13056 ft | 307 kts | 302° |
| 2026-05-08 19:40 | 48.83885 | 3.03836 | 13054 ft | 307 kts | 302° |
| 2026-05-08 19:40 | 48.85063 | 3.01141 | 13055 ft | 308 kts | 302° |
| 2026-05-08 19:41 | 48.86351 | 2.98555 | 13059 ft | 309 kts | 308° |
| 2026-05-08 19:41 | 48.87748 | 2.96043 | 13062 ft | 311 kts | 309° |
| 2026-05-08 19:41 | 48.89153 | 2.93554 | 13051 ft | 312 kts | 309° |
| 2026-05-08 19:41 | 48.90561 | 2.91057 | 13044 ft | 311 kts | 309° |
| 2026-05-08 19:42 | 48.91968 | 2.88560 | 13035 ft | 311 kts | 309° |
| 2026-05-08 19:42 | 48.93345 | 2.86073 | 13059 ft | 309 kts | 304° |
| 2026-05-08 19:42 | 48.94290 | 2.83147 | 13049 ft | 310 kts | 285° |
| 2026-05-08 19:42 | 48.94554 | 2.79915 | 13033 ft | 307 kts | 266° |
| 2026-05-08 19:43 | 48.94171 | 2.76752 | 13050 ft | 306 kts | 257° |
| 2026-05-08 19:43 | 48.93795 | 2.73597 | 13039 ft | 308 kts | 262° |
| 2026-05-08 19:43 | 48.93527 | 2.70377 | 13052 ft | 307 kts | 263° |
| 2026-05-08 19:43 | 48.93275 | 2.67152 | 13055 ft | 307 kts | 263° |
| 2026-05-08 19:44 | 48.93025 | 2.63942 | 13054 ft | 307 kts | 263° |
| 2026-05-08 19:44 | 48.92776 | 2.60768 | 12989 ft | 299 kts | 263° |
| 2026-05-08 19:44 | 48.92531 | 2.57664 | 12873 ft | 293 kts | 263° |
| 2026-05-08 19:44 | 48.92285 | 2.54577 | 12749 ft | 295 kts | 263° |
| 2026-05-08 19:45 | 48.92036 | 2.51480 | 12554 ft | 296 kts | 263° |
| 2026-05-08 19:45 | 48.91797 | 2.48398 | 12351 ft | 293 kts | 263° |
| 2026-05-08 19:45 | 48.91563 | 2.45312 | 12153 ft | 294 kts | 263° |
| 2026-05-08 19:45 | 48.91327 | 2.42270 | 11940 ft | 295 kts | 263° |
| 2026-05-08 19:46 | 48.91073 | 2.39172 | 11651 ft | 293 kts | 263° |
| 2026-05-08 19:46 | 48.90816 | 2.36123 | 11364 ft | 291 kts | 263° |
| 2026-05-08 19:46 | 48.90276 | 2.30014 | 10786 ft | 290 kts | 263° |
| 2026-05-08 19:47 | 48.90008 | 2.27023 | 10445 ft | 289 kts | 263° |
| 2026-05-08 19:47 | 48.89736 | 2.23998 | 9907 ft | 287 kts | 263° |
| 2026-05-08 19:47 | 48.89465 | 2.21027 | 9357 ft | 285 kts | 263° |
| 2026-05-08 19:47 | 48.89197 | 2.18031 | 8835 ft | 292 kts | 263° |
| 2026-05-08 19:48 | 48.88927 | 2.14955 | 8285 ft | 296 kts | 263° |
| 2026-05-08 19:48 | 48.88663 | 2.11855 | 7740 ft | 300 kts | 263° |
| 2026-05-08 19:48 | 48.88403 | 2.08690 | 7199 ft | 303 kts | 263° |
| 2026-05-08 19:48 | 48.88149 | 2.05521 | 6629 ft | 302 kts | 263° |
| 2026-05-08 19:49 | 48.87907 | 2.02449 | 6269 ft | 286 kts | 263° |
| 2026-05-08 19:49 | 48.87677 | 1.99502 | 5951 ft | 285 kts | 263° |
| 2026-05-08 19:49 | 48.87674 | 1.96511 | 5579 ft | 282 kts | 284° |
| 2026-05-08 19:49 | 48.88574 | 1.93922 | 5220 ft | 278 kts | 315° |
| 2026-05-08 19:50 | 48.90134 | 1.92457 | 5007 ft | 253 kts | 348° |
| 2026-05-08 19:50 | 48.91787 | 1.92506 | 4975 ft | 238 kts | 22° |
| 2026-05-08 19:50 | 48.93095 | 1.93942 | 4977 ft | 233 kts | 56° |
| 2026-05-08 19:50 | 48.93780 | 1.96149 | 4971 ft | 229 kts | 66° |
| 2026-05-08 19:51 | 48.94591 | 1.98221 | 4973 ft | 230 kts | 57° |
| 2026-05-08 19:51 | 48.95448 | 2.00269 | 4966 ft | 227 kts | 64° |
| 2026-05-08 19:51 | 48.96006 | 2.02523 | 4966 ft | 229 kts | 72° |
| 2026-05-08 19:51 | 48.96412 | 2.04853 | 4969 ft | 229 kts | 78° |
| 2026-05-08 19:52 | 48.96664 | 2.07264 | 4969 ft | 229 kts | 83° |
| 2026-05-08 19:52 | 48.96794 | 2.09651 | 4960 ft | 230 kts | 86° |
| 2026-05-08 19:52 | 48.96874 | 2.12098 | 4961 ft | 231 kts | 87° |
| 2026-05-08 19:52 | 48.96955 | 2.14521 | 4963 ft | 231 kts | 86° |
| 2026-05-08 19:53 | 48.97063 | 2.16981 | 4966 ft | 231 kts | 85° |
| 2026-05-08 19:53 | 48.97194 | 2.19386 | 4893 ft | 232 kts | 84° |
| 2026-05-08 19:53 | 48.97340 | 2.21828 | 4685 ft | 230 kts | 84° |
| 2026-05-08 19:53 | 48.97485 | 2.24223 | 4421 ft | 229 kts | 84° |
| 2026-05-08 19:54 | 48.97628 | 2.26646 | 4122 ft | 229 kts | 84° |
| 2026-05-08 19:54 | 48.97767 | 2.29035 | 3823 ft | 229 kts | 84° |
| 2026-05-08 19:54 | 48.97905 | 2.31466 | 3516 ft | 228 kts | 84° |
| 2026-05-08 19:54 | 48.98037 | 2.33809 | 3164 ft | 219 kts | 84° |
| 2026-05-08 19:55 | 48.98162 | 2.36056 | 2905 ft | 208 kts | 84° |
| 2026-05-08 19:55 | 48.98282 | 2.38180 | 2650 ft | 198 kts | 84° |
| 2026-05-08 19:55 | 48.98393 | 2.40212 | 2390 ft | 186 kts | 83° |
| 2026-05-08 19:55 | 48.98497 | 2.42090 | 2197 ft | 169 kts | 83° |
| 2026-05-08 19:56 | 48.98595 | 2.43824 | 1991 ft | 157 kts | 84° |
| 2026-05-08 19:56 | 48.98680 | 2.45414 | 1816 ft | 146 kts | 82° |
| 2026-05-08 19:56 | 48.98763 | 2.46893 | 1590 ft | 139 kts | 83° |
| 2026-05-08 19:56 | 48.98841 | 2.48313 | 1383 ft | 132 kts | 83° |
| 2026-05-08 19:57 | 48.98918 | 2.49692 | 1217 ft | 129 kts | 84° |
| 2026-05-08 19:57 | 48.98976 | 2.51056 | 1025 ft | 135 kts | 84° |
| 2026-05-08 19:57 | 48.99061 | 2.52496 | 911 ft | 135 kts | 80° |
| 2026-05-08 19:57 | 48.99148 | 2.53902 | 702 ft | 132 kts | 82° |
| 2026-05-08 19:58 | 48.99220 | 2.55280 | 520 ft | 132 kts | 83° |
| 2026-05-08 19:58 | 48.99300 | 2.56737 | 372 ft | 136 kts | 83° |
| 2026-05-08 19:58 | 48.99380 | 2.58090 | 324 ft | 118 kts | 85° |
| 2026-05-08 19:58 | 48.99425 | 2.59069 | 322 ft | 67 kts | 84° |
| 2026-05-08 19:59 | 48.99458 | 2.59652 | 322 ft | 39 kts | 85° |
| 2026-05-08 19:59 | 48.99542 | 2.59949 | 322 ft | 22 kts | 28° |
| 2026-05-08 19:59 | 48.99656 | 2.59976 | 322 ft | 16 kts | 355° |
| 2026-05-08 19:59 | 48.99765 | 2.59964 | 324 ft | 14 kts | 355° |
| 2026-05-08 20:00 | 48.99857 | 2.59959 | 326 ft | 12 kts | 7° |
| 2026-05-08 20:00 | 48.99915 | 2.60015 | 326 ft | 6 kts | 49° |
| 2026-05-08 20:00 | 48.99947 | 2.60059 | 326 ft | 6 kts | 29° |
| 2026-05-08 20:00 | 48.99970 | 2.60073 | 326 ft | 1 kts | 17° |
| 2026-05-08 20:01 | 48.99976 | 2.60076 | 326 ft | 0 kts | 13° |
| 2026-05-08 20:01 | 48.99977 | 2.60076 | 326 ft | 0 kts | 13° |
| 2026-05-08 20:02 | 48.99999 | 2.60061 | 326 ft | 6 kts | 314° |
| 2026-05-08 20:02 | 49.00028 | 2.60017 | 326 ft | 5 kts | 314° |
| 2026-05-08 20:02 | 49.00068 | 2.59990 | 327 ft | 9 kts | 331° |
| 2026-05-08 20:02 | 49.00094 | 2.59885 | 327 ft | 12 kts | 266° |
| 2026-05-08 20:03 | 49.00089 | 2.59746 | 327 ft | 13 kts | 266° |
| 2026-05-08 20:03 | 49.00082 | 2.59613 | 327 ft | 12 kts | 265° |
| 2026-05-08 20:03 | 49.00075 | 2.59478 | 327 ft | 12 kts | 265° |
| 2026-05-08 20:03 | 49.00068 | 2.59350 | 328 ft | 11 kts | 265° |
| 2026-05-08 20:04 | 49.00063 | 2.59230 | 329 ft | 11 kts | 263° |
| 2026-05-08 20:04 | 49.00054 | 2.59107 | 329 ft | 11 kts | 263° |
| 2026-05-08 20:04 | 49.00046 | 2.58979 | 329 ft | 12 kts | 266° |
| 2026-05-08 20:04 | 49.00042 | 2.58846 | 329 ft | 12 kts | 266° |
| 2026-05-08 20:05 | 49.00032 | 2.58699 | 329 ft | 16 kts | 263° |
| 2026-05-08 20:05 | 49.00021 | 2.58503 | 329 ft | 20 kts | 265° |
| 2026-05-08 20:05 | 49.00009 | 2.58289 | 329 ft | 20 kts | 265° |
| 2026-05-08 20:05 | 48.99998 | 2.58067 | 329 ft | 21 kts | 265° |
| 2026-05-08 20:06 | 48.99985 | 2.57838 | 329 ft | 21 kts | 265° |
| 2026-05-08 20:06 | 48.99972 | 2.57619 | 331 ft | 20 kts | 264° |
| 2026-05-08 20:06 | 48.99962 | 2.57423 | 331 ft | 15 kts | 265° |
| 2026-05-08 20:06 | 48.99955 | 2.57269 | 331 ft | 14 kts | 266° |
| 2026-05-08 20:07 | 48.99949 | 2.57134 | 331 ft | 9 kts | 265° |
| 2026-05-08 20:07 | 48.99946 | 2.57081 | 331 ft | 5 kts | 265° |
| 2026-05-08 20:07 | 48.99945 | 2.57071 | 331 ft | 0 kts | 265° |
| 2026-05-08 20:08 | 48.99946 | 2.57042 | 331 ft | 6 kts | 279° |
| 2026-05-08 20:08 | 48.99978 | 2.57001 | 332 ft | 7 kts | 350° |
| 2026-05-08 20:08 | 49.00031 | 2.56991 | 332 ft | 10 kts | 353° |
| 2026-05-08 20:09 | 49.00115 | 2.56959 | 333 ft | 11 kts | 314° |
| 2026-05-08 20:09 | 49.00124 | 2.56838 | 334 ft | 12 kts | 266° |
| 2026-05-08 20:09 | 49.00119 | 2.56713 | 334 ft | 10 kts | 266° |
| 2026-05-08 20:09 | 49.00113 | 2.56610 | 334 ft | 9 kts | 264° |
| 2026-05-08 20:10 | 49.00108 | 2.56508 | 334 ft | 9 kts | 264° |
| 2026-05-08 20:10 | 49.00102 | 2.56405 | 334 ft | 9 kts | 264° |
| 2026-05-08 20:10 | 49.00107 | 2.56355 | 334 ft | 3 kts | 310° |
| 2026-05-08 20:10 | 49.00128 | 2.56335 | 335 ft | 4 kts | 335° |
| 2026-05-08 20:11 | 49.00150 | 2.56320 | 335 ft | 2 kts | 337° |
| 2026-05-08 20:11 | 49.00159 | 2.56314 | 335 ft | 0 kts | 335° |
| 2026-05-08 20:11 | 49.00162 | 2.56312 | 335 ft | 0 kts | 336° |